Observation data for New Home on 06/25/2019      Previous  Date  Next       Current Mesonet Observations  Soil Data  Daily Summary Page  Observations in Plain Language
KNH1 250500Z 15011G18KT 23/19 A30 RMK A01 T02300194  RH  080%=      5-min Rain = 0
KNH1 250501Z 15013KT 23/20 A30 RMK A01 T02310196  RH  081%=      5-min Rain = 0
KNH1 250502Z 15011KT 23/20 A30 RMK A01 T02310196  RH  081%=      5-min Rain = 0
KNH1 250503Z 15009G15KT 23/20 A30 RMK A01 T02310196  RH  081%=      5-min Rain = 0
KNH1 250504Z 16013KT 23/20 A30 RMK A01 T02320198  RH  082%=      5-min Rain = 0
KNH1 250505Z 17015G20KT 23/20 A30 RMK A01 T02320199  RH  082%=      5-min Rain = 0
KNH1 250506Z 16017KT 23/20 A30 RMK A01 T02330195  RH  079%=      5-min Rain = 0
KNH1 250507Z 16014KT 23/19 A30 RMK A01 T02340194  RH  078%=      5-min Rain = 0
KNH1 250508Z 16013G18KT 23/19 A30 RMK A01 T02340191  RH  077%=      5-min Rain = 0
KNH1 250509Z 16016G22KT 23/19 A30 RMK A01 T02340189  RH  076%=      5-min Rain = 0
KNH1 250510Z 16015G21KT 23/19 A30 RMK A01 T02340187  RH  075%=      5-min Rain = 0
KNH1 250511Z 15013G19KT 23/19 A30 RMK A01 T02340186  RH  074%=      5-min Rain = 0
KNH1 250512Z 16012G17KT 23/19 A30 RMK A01 T02340185  RH  074%=      5-min Rain = 0
KNH1 250513Z 16013G19KT 23/18 A30 RMK A01 T02330183  RH  073%=      5-min Rain = 0
KNH1 250514Z 16011KT 23/18 A30 RMK A01 T02330180  RH  072%=      5-min Rain = 0
KNH1 250515Z 16014G20KT 23/18 A30 RMK A01 T02330179  RH  072%=      5-min Rain = 0
KNH1 250516Z 16012KT 23/18 A30 RMK A01 T02330178  RH  072%=      5-min Rain = 0
KNH1 250517Z 16011KT 23/18 A30 RMK A01 T02320177  RH  071%=      5-min Rain = 0
KNH1 250518Z 15009G16KT 23/18 A30 RMK A01 T02310176  RH  071%=      5-min Rain = 0
KNH1 250519Z 15011G18KT 23/18 A30 RMK A01 T02310175  RH  071%=      5-min Rain = 0
KNH1 250520Z 16010KT 23/18 A30 RMK A01 T02310175  RH  071%=      5-min Rain = 0
KNH1 250521Z 15010KT 23/18 A30 RMK A01 T02300175  RH  071%=      5-min Rain = 0
KNH1 250522Z 16013KT 23/17 A30 RMK A01 T02300172  RH  070%=      5-min Rain = 0
KNH1 250523Z 16010G16KT 23/17 A30 RMK A01 T02300170  RH  069%=      5-min Rain = 0
KNH1 250524Z 15010G17KT 23/17 A2999 RMK A01 T02300170  RH  069%=      5-min Rain = 0
KNH1 250525Z 15010KT 23/17 A2999 RMK A01 T02290169  RH  069%=      5-min Rain = 0
KNH1 250526Z 15013KT 23/16 A2999 RMK A01 T02290162  RH  066%=      5-min Rain = 0
KNH1 250527Z 16011G17KT 23/16 A2999 RMK A01 T02290159  RH  065%=      5-min Rain = 0
KNH1 250528Z 16015G24KT 23/16 A2999 RMK A01 T02290160  RH  065%=      5-min Rain = 0
KNH1 250529Z 16015KT 23/15 A2999 RMK A01 T02290153  RH  062%=      5-min Rain = 0
KNH1 250530Z 16012G19KT 23/15 A2999 RMK A01 T02290153  RH  062%=      5-min Rain = 0
KNH1 250531Z 16012KT 23/15 A2999 RMK A01 T02290152  RH  062%=      5-min Rain = 0
KNH1 250532Z 17013KT 23/15 A2999 RMK A01 T02280150  RH  061%=      5-min Rain = 0
KNH1 250533Z 16012KT 23/15 A2999 RMK A01 T02280150  RH  062%=      5-min Rain = 0
KNH1 250534Z 15012KT 23/15 A2999 RMK A01 T02270148  RH  061%=      5-min Rain = 0
KNH1 250535Z 15013G18KT 23/15 A2999 RMK A01 T02260145  RH  060%=      5-min Rain = 0
KNH1 250536Z 16014G19KT 23/15 A2999 RMK A01 T02260145  RH  060%=      5-min Rain = 0
KNH1 250537Z 15013G19KT 23/14 A2999 RMK A01 T02260144  RH  060%=      5-min Rain = 0
KNH1 250538Z 16010KT 23/14 A2999 RMK A01 T02260144  RH  060%=      5-min Rain = 0
KNH1 250539Z 16012KT 23/15 A2999 RMK A01 T02250145  RH  060%=      5-min Rain = 0
KNH1 250540Z 16012G17KT 23/14 A2999 RMK A01 T02250144  RH  060%=      5-min Rain = 0
KNH1 250541Z 16012G18KT 23/14 A2999 RMK A01 T02250144  RH  060%=      5-min Rain = 0
KNH1 250542Z 16012G17KT 22/14 A2999 RMK A01 T02240144  RH  060%=      5-min Rain = 0
KNH1 250543Z 16013KT 22/14 A2999 RMK A01 T02230143  RH  060%=      5-min Rain = 0
KNH1 250544Z 16011KT 22/14 A2999 RMK A01 T02230143  RH  061%=      5-min Rain = 0
KNH1 250545Z 16013KT 22/14 A2999 RMK A01 T02220143  RH  060%=      5-min Rain = 0
KNH1 250546Z 16010KT 22/14 A2999 RMK A01 T02220142  RH  060%=      5-min Rain = 0
KNH1 250547Z 16013KT 22/14 A2999 RMK A01 T02220141  RH  060%=      5-min Rain = 0
KNH1 250548Z 17014KT 22/14 A2998 RMK A01 T02210140  RH  060%=      5-min Rain = 0
KNH1 250549Z 17011KT 22/14 A2998 RMK A01 T02210141  RH  060%=      5-min Rain = 0
KNH1 250550Z 17012KT 22/14 A2998 RMK A01 T02210141  RH  060%=      5-min Rain = 0
KNH1 250551Z 17010KT 22/14 A2998 RMK A01 T02200141  RH  061%=      5-min Rain = 0
KNH1 250552Z 17012KT 22/14 A2998 RMK A01 T02200141  RH  061%=      5-min Rain = 0
KNH1 250553Z 17010G15KT 22/14 A2998 RMK A01 T02190142  RH  061%=      5-min Rain = 0
KNH1 250554Z 16011KT 22/14 A2998 RMK A01 T02190142  RH  062%=      5-min Rain = 0
KNH1 250555Z 17012KT 22/14 A2998 RMK A01 T02180142  RH  062%=      5-min Rain = 0
KNH1 250556Z 17009KT 22/14 A2998 RMK A01 T02180142  RH  062%=      5-min Rain = 0
KNH1 250557Z 17010KT 22/14 A2998 RMK A01 T02180142  RH  062%=      5-min Rain = 0
KNH1 250558Z 16009KT 22/14 A2998 RMK A01 T02180141  RH  062%=      5-min Rain = 0
KNH1 250559Z 17012G17KT 22/14 A2998 RMK A01 T02170141  RH  062%=      5-min Rain = 0
KNH1 250600Z 17011KT 22/14 A2998 RMK A01 T02170140  RH  061%=      5-min Rain = 0
KNH1 250601Z 17010KT 22/14 A2998 RMK A01 T02170139  RH  061%=      5-min Rain = 0
KNH1 250602Z 16009KT 22/14 A2998 RMK A01 T02170139  RH  061%=      5-min Rain = 0
KNH1 250603Z 16010KT 22/14 A2998 RMK A01 T02160139  RH  061%=      5-min Rain = 0
KNH1 250604Z 17009KT 22/14 A2998 RMK A01 T02160138  RH  061%=      5-min Rain = 0
KNH1 250605Z 17008KT 22/14 A2998 RMK A01 T02160138  RH  061%=      5-min Rain = 0
KNH1 250606Z 18010KT 22/14 A2998 RMK A01 T02150137  RH  061%=      5-min Rain = 0
KNH1 250607Z 17008KT 22/14 A2998 RMK A01 T02150137  RH  061%=      5-min Rain = 0
KNH1 250608Z 18009KT 22/14 A2998 RMK A01 T02150138  RH  061%=      5-min Rain = 0
KNH1 250609Z 17008KT 21/14 A2998 RMK A01 T02140137  RH  061%=      5-min Rain = 0
KNH1 250610Z 17008KT 21/14 A2998 RMK A01 T02140137  RH  061%=      5-min Rain = 0
KNH1 250611Z 17008KT 21/14 A2998 RMK A01 T02130136  RH  061%=      5-min Rain = 0
KNH1 250612Z 17008KT 21/14 A2998 RMK A01 T02130136  RH  061%=      5-min Rain = 0
KNH1 250613Z 17008KT 21/14 A2998 RMK A01 T02130136  RH  061%=      5-min Rain = 0
KNH1 250614Z 18007KT 21/14 A2998 RMK A01 T02120135  RH  061%=      5-min Rain = 0
KNH1 250615Z 18009KT 21/14 A2998 RMK A01 T02120135  RH  061%=      5-min Rain = 0
KNH1 250616Z 18009KT 21/14 A2998 RMK A01 T02120135  RH  061%=      5-min Rain = 0
KNH1 250617Z 18008KT 21/14 A2998 RMK A01 T02120136  RH  062%=      5-min Rain = 0
KNH1 250618Z 17008KT 21/14 A2998 RMK A01 T02110135  RH  062%=      5-min Rain = 0
KNH1 250619Z 18008KT 21/14 A2998 RMK A01 T02110136  RH  062%=      5-min Rain = 0
KNH1 250620Z 17007KT 21/14 A2998 RMK A01 T02110136  RH  062%=      5-min Rain = 0
KNH1 250621Z 17007KT 21/14 A2998 RMK A01 T02110136  RH  063%=      5-min Rain = 0
KNH1 250622Z 18006KT 21/14 A2998 RMK A01 T02100136  RH  063%=      5-min Rain = 0
KNH1 250623Z 18007KT 21/14 A2998 RMK A01 T02100137  RH  063%=      5-min Rain = 0
KNH1 250624Z 17007KT 21/14 A2998 RMK A01 T02090137  RH  063%=      5-min Rain = 0
KNH1 250625Z 17006KT 21/14 A2998 RMK A01 T02090137  RH  063%=      5-min Rain = 0
KNH1 250626Z 17006KT 21/14 A2998 RMK A01 T02090137  RH  064%=      5-min Rain = 0
KNH1 250627Z 18008KT 21/14 A2998 RMK A01 T02080137  RH  064%=      5-min Rain = 0
KNH1 250628Z 18007KT 21/14 A2998 RMK A01 T02080137  RH  064%=      5-min Rain = 0
KNH1 250629Z 18007KT 21/14 A2998 RMK A01 T02080137  RH  064%=      5-min Rain = 0
KNH1 250630Z 18007KT 21/14 A2998 RMK A01 T02070138  RH  064%=      5-min Rain = 0
KNH1 250631Z 18007KT 21/14 A2998 RMK A01 T02070138  RH  064%=      5-min Rain = 0
KNH1 250632Z 18007KT 21/14 A2998 RMK A01 T02070138  RH  065%=      5-min Rain = 0
KNH1 250633Z 18006KT 21/14 A2998 RMK A01 T02070138  RH  065%=      5-min Rain = 0
KNH1 250634Z 18006KT 21/14 A2998 RMK A01 T02060138  RH  065%=      5-min Rain = 0
KNH1 250635Z 18005KT 21/14 A2999 RMK A01 T02060138  RH  065%=      5-min Rain = 0
KNH1 250636Z 18006KT 21/14 A2998 RMK A01 T02060138  RH  065%=      5-min Rain = 0
KNH1 250637Z 18006KT 21/14 A2998 RMK A01 T02050138  RH  065%=      5-min Rain = 0
KNH1 250638Z 18006KT 21/14 A2998 RMK A01 T02050138  RH  065%=      5-min Rain = 0
KNH1 250639Z 18006KT 21/14 A2998 RMK A01 T02050138  RH  065%=      5-min Rain = 0
KNH1 250640Z 19006KT 21/14 A2998 RMK A01 T02050138  RH  066%=      5-min Rain = 0
KNH1 250641Z 18006KT 21/14 A2998 RMK A01 T02050139  RH  066%=      5-min Rain = 0
KNH1 250642Z 19005KT 20/14 A2998 RMK A01 T02040138  RH  066%=      5-min Rain = 0
KNH1 250643Z 18006KT 20/14 A2998 RMK A01 T02040138  RH  066%=      5-min Rain = 0
KNH1 250644Z 19006KT 20/14 A2998 RMK A01 T02030138  RH  066%=      5-min Rain = 0
KNH1 250645Z 19006KT 20/14 A2998 RMK A01 T02030138  RH  066%=      5-min Rain = 0
KNH1 250646Z 19006KT 20/14 A2998 RMK A01 T02020137  RH  066%=      5-min Rain = 0
KNH1 250647Z 19007KT 20/14 A2998 RMK A01 T02020137  RH  066%=      5-min Rain = 0
KNH1 250648Z 19006KT 20/14 A2998 RMK A01 T02020137  RH  066%=      5-min Rain = 0
KNH1 250649Z 19006KT 20/14 A2998 RMK A01 T02020137  RH  066%=      5-min Rain = 0
KNH1 250650Z 18005KT 20/14 A2998 RMK A01 T02020136  RH  066%=      5-min Rain = 0
KNH1 250651Z 18006KT 20/14 A2998 RMK A01 T02020136  RH  066%=      5-min Rain = 0
KNH1 250652Z 18007KT 20/14 A2998 RMK A01 T02010136  RH  066%=      5-min Rain = 0
KNH1 250653Z 18008KT 20/14 A2998 RMK A01 T02020135  RH  065%=      5-min Rain = 0
KNH1 250654Z 18007KT 20/13 A2998 RMK A01 T02020134  RH  065%=      5-min Rain = 0
KNH1 250655Z 18006KT 20/14 A2998 RMK A01 T02030135  RH  065%=      5-min Rain = 0
KNH1 250656Z 18006KT 20/14 A2998 RMK A01 T02030135  RH  065%=      5-min Rain = 0
KNH1 250657Z 18005KT 20/13 A2998 RMK A01 T02020134  RH  065%=      5-min Rain = 0
KNH1 250658Z 18006KT 20/13 A2998 RMK A01 T02020134  RH  065%=      5-min Rain = 0
KNH1 250659Z 18006KT 20/13 A2998 RMK A01 T02020134  RH  065%=      5-min Rain = 0
KNH1 250700Z 18006KT 20/13 A2998 RMK A01 T02020134  RH  065%=      5-min Rain = 0
KNH1 250701Z 18006KT 20/13 A2998 RMK A01 T02010133  RH  065%=      5-min Rain = 0
KNH1 250702Z 19006KT 20/13 A2998 RMK A01 T02010133  RH  065%=      5-min Rain = 0
KNH1 250703Z 19007KT 20/13 A2998 RMK A01 T02010133  RH  065%=      5-min Rain = 0
KNH1 250704Z 18006KT 20/13 A2998 RMK A01 T02010133  RH  065%=      5-min Rain = 0
KNH1 250705Z 18006KT 20/13 A2998 RMK A01 T02000133  RH  065%=      5-min Rain = 0
KNH1 250706Z 18005KT 20/13 A2998 RMK A01 T02000133  RH  065%=      5-min Rain = 0
KNH1 250707Z 18005KT 20/13 A2998 RMK A01 T02000133  RH  065%=      5-min Rain = 0
KNH1 250708Z 18005KT 20/13 A2998 RMK A01 T01990133  RH  066%=      5-min Rain = 0
KNH1 250709Z 18005KT 20/13 A2998 RMK A01 T01990133  RH  066%=      5-min Rain = 0
KNH1 250710Z 18006KT 20/13 A2998 RMK A01 T01990133  RH  066%=      5-min Rain = 0
KNH1 250711Z 18006KT 20/13 A2998 RMK A01 T01990133  RH  066%=      5-min Rain = 0
KNH1 250712Z 18006KT 20/13 A2998 RMK A01 T01990133  RH  066%=      5-min Rain = 0
KNH1 250713Z 19007KT 20/13 A2998 RMK A01 T01980133  RH  066%=      5-min Rain = 0
KNH1 250714Z 19007KT 20/13 A2998 RMK A01 T01980133  RH  066%=      5-min Rain = 0
KNH1 250715Z 19006KT 20/13 A2998 RMK A01 T01980133  RH  066%=      5-min Rain = 0
KNH1 250716Z 19006KT 20/13 A2998 RMK A01 T01980133  RH  066%=      5-min Rain = 0
KNH1 250717Z 18006KT 20/13 A2998 RMK A01 T01970133  RH  066%=      5-min Rain = 0
KNH1 250718Z 18006KT 20/13 A2998 RMK A01 T01970133  RH  066%=      5-min Rain = 0
KNH1 250719Z 18007KT 20/13 A2998 RMK A01 T01970133  RH  067%=      5-min Rain = 0
KNH1 250720Z 18006KT 20/13 A2998 RMK A01 T01970133  RH  066%=      5-min Rain = 0
KNH1 250721Z 18006KT 20/13 A2998 RMK A01 T01970133  RH  066%=      5-min Rain = 0
KNH1 250722Z 18006KT 20/13 A2998 RMK A01 T01970133  RH  066%=      5-min Rain = 0
KNH1 250723Z 18006KT 20/13 A2998 RMK A01 T01970133  RH  067%=      5-min Rain = 0
KNH1 250724Z 18006KT 20/13 A2998 RMK A01 T01970133  RH  067%=      5-min Rain = 0
KNH1 250725Z 18005KT 20/13 A2998 RMK A01 T01970133  RH  067%=      5-min Rain = 0
KNH1 250726Z 19006KT 20/13 A2998 RMK A01 T01960133  RH  067%=      5-min Rain = 0
KNH1 250727Z 18006KT 20/13 A2998 RMK A01 T01960132  RH  067%=      5-min Rain = 0
KNH1 250728Z 18006KT 20/13 A2998 RMK A01 T01950133  RH  067%=      5-min Rain = 0
KNH1 250729Z 18006KT 20/13 A2999 RMK A01 T01950133  RH  067%=      5-min Rain = 0
KNH1 250730Z 18006KT 19/13 A2999 RMK A01 T01940133  RH  068%=      5-min Rain = 0
KNH1 250731Z 17006KT 19/13 A2998 RMK A01 T01940133  RH  068%=      5-min Rain = 0
KNH1 250732Z 18004KT 19/13 A2998 RMK A01 T01940133  RH  068%=      5-min Rain = 0
KNH1 250733Z 18005KT 19/13 A2998 RMK A01 T01940133  RH  068%=      5-min Rain = 0
KNH1 250734Z 18006KT 19/13 A2998 RMK A01 T01940133  RH  068%=      5-min Rain = 0
KNH1 250735Z 18005KT 19/13 A2999 RMK A01 T01930133  RH  068%=      5-min Rain = 0
KNH1 250736Z 18006KT 19/13 A2999 RMK A01 T01930133  RH  068%=      5-min Rain = 0
KNH1 250737Z 19006KT 19/13 A2998 RMK A01 T01930133  RH  068%=      5-min Rain = 0
KNH1 250738Z 18007KT 19/13 A2999 RMK A01 T01930133  RH  068%=      5-min Rain = 0
KNH1 250739Z 18006KT 19/13 A2998 RMK A01 T01930133  RH  068%=      5-min Rain = 0
KNH1 250740Z 18006KT 19/13 A2998 RMK A01 T01930133  RH  068%=      5-min Rain = 0
KNH1 250741Z 18006KT 19/13 A2998 RMK A01 T01920133  RH  068%=      5-min Rain = 0
KNH1 250742Z 18007KT 19/13 A2998 RMK A01 T01920133  RH  068%=      5-min Rain = 0
KNH1 250743Z 18006KT 19/13 A2998 RMK A01 T01920133  RH  069%=      5-min Rain = 0
KNH1 250744Z 19007KT 19/13 A2998 RMK A01 T01910133  RH  069%=      5-min Rain = 0
KNH1 250745Z 19006KT 19/13 A2998 RMK A01 T01910133  RH  069%=      5-min Rain = 0
KNH1 250746Z 18007KT 19/13 A2998 RMK A01 T01910133  RH  069%=      5-min Rain = 0
KNH1 250747Z 18007KT 19/13 A2998 RMK A01 T01910132  RH  069%=      5-min Rain = 0
KNH1 250748Z 18007KT 19/13 A2998 RMK A01 T01900132  RH  069%=      5-min Rain = 0
KNH1 250749Z 18006KT 19/13 A2998 RMK A01 T01900133  RH  069%=      5-min Rain = 0
KNH1 250750Z 18008KT 19/13 A2998 RMK A01 T01910133  RH  069%=      5-min Rain = 0
KNH1 250751Z 18007KT 19/13 A2999 RMK A01 T01900133  RH  069%=      5-min Rain = 0
KNH1 250752Z 19007KT 19/13 A2998 RMK A01 T01900132  RH  069%=      5-min Rain = 0
KNH1 250753Z 19007KT 19/13 A2998 RMK A01 T01900133  RH  069%=      5-min Rain = 0
KNH1 250754Z 19008KT 19/13 A2999 RMK A01 T01900133  RH  069%=      5-min Rain = 0
KNH1 250755Z 19008KT 19/13 A2999 RMK A01 T01890132  RH  070%=      5-min Rain = 0
KNH1 250756Z 19008KT 19/13 A2998 RMK A01 T01890132  RH  070%=      5-min Rain = 0
KNH1 250757Z 19008KT 19/13 A2998 RMK A01 T01890132  RH  070%=      5-min Rain = 0
KNH1 250758Z 19007KT 19/13 A2998 RMK A01 T01890132  RH  070%=      5-min Rain = 0
KNH1 250759Z 19008KT 19/13 A2998 RMK A01 T01880132  RH  070%=      5-min Rain = 0
KNH1 250800Z 18008KT 19/13 A2998 RMK A01 T01880132  RH  070%=      5-min Rain = 0
KNH1 250801Z 18007KT 19/13 A2998 RMK A01 T01880132  RH  070%=      5-min Rain = 0
KNH1 250802Z 18007KT 19/13 A2998 RMK A01 T01880133  RH  070%=      5-min Rain = 0
KNH1 250803Z 18007KT 19/13 A2998 RMK A01 T01880132  RH  070%=      5-min Rain = 0
KNH1 250804Z 19007KT 19/13 A2998 RMK A01 T01870133  RH  070%=      5-min Rain = 0
KNH1 250805Z 18007KT 19/13 A2998 RMK A01 T01870133  RH  071%=      5-min Rain = 0
KNH1 250806Z 19007KT 19/13 A2998 RMK A01 T01870132  RH  071%=      5-min Rain = 0
KNH1 250807Z 19007KT 19/13 A2998 RMK A01 T01860132  RH  071%=      5-min Rain = 0
KNH1 250808Z 18007KT 19/13 A2998 RMK A01 T01860133  RH  071%=      5-min Rain = 0
KNH1 250809Z 18007KT 19/13 A2998 RMK A01 T01860133  RH  071%=      5-min Rain = 0
KNH1 250810Z 18007KT 19/13 A2998 RMK A01 T01850133  RH  071%=      5-min Rain = 0
KNH1 250811Z 18007KT 19/13 A2998 RMK A01 T01850133  RH  072%=      5-min Rain = 0
KNH1 250812Z 18006KT 19/13 A2998 RMK A01 T01850133  RH  072%=      5-min Rain = 0
KNH1 250813Z 18006KT 19/13 A2998 RMK A01 T01850133  RH  072%=      5-min Rain = 0
KNH1 250814Z 18007KT 19/13 A2998 RMK A01 T01850134  RH  072%=      5-min Rain = 0
KNH1 250815Z 18006KT 19/13 A2998 RMK A01 T01850133  RH  072%=      5-min Rain = 0
KNH1 250816Z 18006KT 19/13 A2998 RMK A01 T01850133  RH  072%=      5-min Rain = 0
KNH1 250817Z 18006KT 19/13 A2998 RMK A01 T01850133  RH  072%=      5-min Rain = 0
KNH1 250818Z 18006KT 19/13 A2998 RMK A01 T01850133  RH  072%=      5-min Rain = 0
KNH1 250819Z 19006KT 19/13 A2998 RMK A01 T01850133  RH  072%=      5-min Rain = 0
KNH1 250820Z 19006KT 19/13 A2998 RMK A01 T01850133  RH  072%=      5-min Rain = 0
KNH1 250821Z 19007KT 19/13 A2998 RMK A01 T01850133  RH  072%=      5-min Rain = 0
KNH1 250822Z 19007KT 19/13 A2998 RMK A01 T01850133  RH  072%=      5-min Rain = 0
KNH1 250823Z 19006KT 18/13 A2998 RMK A01 T01840133  RH  072%=      5-min Rain = 0
KNH1 250824Z 18007KT 18/13 A2998 RMK A01 T01840133  RH  072%=      5-min Rain = 0
KNH1 250825Z 19007KT 18/13 A2998 RMK A01 T01830133  RH  072%=      5-min Rain = 0
KNH1 250826Z 19007KT 18/13 A2998 RMK A01 T01830133  RH  073%=      5-min Rain = 0
KNH1 250827Z 18008KT 18/13 A2998 RMK A01 T01830133  RH  073%=      5-min Rain = 0
KNH1 250828Z 19007KT 18/13 A2998 RMK A01 T01820133  RH  073%=      5-min Rain = 0
KNH1 250829Z 19007KT 18/13 A2998 RMK A01 T01830133  RH  073%=      5-min Rain = 0
KNH1 250830Z 19007KT 18/13 A2998 RMK A01 T01830133  RH  073%=      5-min Rain = 0
KNH1 250831Z 18009KT 18/13 A2998 RMK A01 T01820133  RH  073%=      5-min Rain = 0
KNH1 250832Z 18008KT 18/13 A2998 RMK A01 T01820133  RH  073%=      5-min Rain = 0
KNH1 250833Z 18010KT 18/13 A2999 RMK A01 T01830134  RH  073%=      5-min Rain = 0
KNH1 250834Z 18008KT 18/13 A2999 RMK A01 T01820133  RH  073%=      5-min Rain = 0
KNH1 250835Z 18008KT 18/13 A2999 RMK A01 T01820133  RH  073%=      5-min Rain = 0
KNH1 250836Z 18009KT 18/13 A2999 RMK A01 T01830133  RH  073%=      5-min Rain = 0
KNH1 250837Z 19008KT 18/13 A2999 RMK A01 T01820133  RH  073%=      5-min Rain = 0
KNH1 250838Z 19009KT 18/13 A2999 RMK A01 T01820133  RH  073%=      5-min Rain = 0
KNH1 250839Z 19010KT 18/13 A2999 RMK A01 T01820133  RH  073%=      5-min Rain = 0
KNH1 250840Z 19010KT 18/13 A2999 RMK A01 T01830133  RH  073%=      5-min Rain = 0
KNH1 250841Z 19011KT 18/13 A2999 RMK A01 T01840133  RH  072%=      5-min Rain = 0
KNH1 250842Z 19011KT 18/13 A2999 RMK A01 T01840133  RH  072%=      5-min Rain = 0
KNH1 250843Z 19012KT 18/13 A2999 RMK A01 T01840133  RH  072%=      5-min Rain = 0
KNH1 250844Z 19011KT 18/13 A2999 RMK A01 T01840133  RH  072%=      5-min Rain = 0
KNH1 250845Z 19011KT 18/13 A2999 RMK A01 T01840133  RH  072%=      5-min Rain = 0
KNH1 250846Z 19011KT 19/13 A2999 RMK A01 T01850133  RH  072%=      5-min Rain = 0
KNH1 250847Z 19010KT 18/13 A2999 RMK A01 T01840133  RH  072%=      5-min Rain = 0
KNH1 250848Z 19012KT 18/13 A2999 RMK A01 T01840133  RH  072%=      5-min Rain = 0
KNH1 250849Z 19011KT 18/13 A2999 RMK A01 T01840133  RH  072%=      5-min Rain = 0
KNH1 250850Z 20011KT 19/13 A2999 RMK A01 T01850133  RH  072%=      5-min Rain = 0
KNH1 250851Z 20010KT 19/13 A2999 RMK A01 T01850133  RH  072%=      5-min Rain = 0
KNH1 250852Z 19010KT 19/13 A2999 RMK A01 T01850133  RH  072%=      5-min Rain = 0
KNH1 250853Z 20011KT 19/13 A2998 RMK A01 T01850134  RH  072%=      5-min Rain = 0
KNH1 250854Z 20011KT 18/13 A2998 RMK A01 T01840133  RH  072%=      5-min Rain = 0
KNH1 250855Z 20011KT 18/13 A2998 RMK A01 T01840133  RH  072%=      5-min Rain = 0
KNH1 250856Z 20010KT 18/13 A2998 RMK A01 T01840133  RH  072%=      5-min Rain = 0
KNH1 250857Z 20010KT 18/13 A2998 RMK A01 T01830133  RH  072%=      5-min Rain = 0
KNH1 250858Z 20010KT 18/13 A2998 RMK A01 T01840133  RH  073%=      5-min Rain = 0
KNH1 250859Z 20009KT 18/13 A2998 RMK A01 T01830133  RH  073%=      5-min Rain = 0
KNH1 250900Z 20010KT 18/13 A2998 RMK A01 T01830133  RH  073%=      5-min Rain = 0
KNH1 250901Z 20010KT 18/13 A2998 RMK A01 T01820133  RH  073%=      5-min Rain = 0
KNH1 250902Z 20010KT 18/13 A2998 RMK A01 T01820134  RH  073%=      5-min Rain = 0
KNH1 250903Z 20011KT 18/13 A2998 RMK A01 T01820134  RH  073%=      5-min Rain = 0
KNH1 250904Z 20010KT 18/13 A2998 RMK A01 T01810133  RH  073%=      5-min Rain = 0
KNH1 250905Z 20010KT 18/13 A2998 RMK A01 T01810133  RH  074%=      5-min Rain = 0
KNH1 250906Z 20010KT 18/13 A2998 RMK A01 T01810134  RH  074%=      5-min Rain = 0
KNH1 250907Z 20009KT 18/13 A2998 RMK A01 T01810133  RH  074%=      5-min Rain = 0
KNH1 250908Z 20009KT 18/13 A2998 RMK A01 T01810133  RH  074%=      5-min Rain = 0
KNH1 250909Z 20010KT 18/13 A2998 RMK A01 T01800133  RH  074%=      5-min Rain = 0
KNH1 250910Z 20009KT 18/13 A2998 RMK A01 T01800133  RH  074%=      5-min Rain = 0
KNH1 250911Z 20010KT 18/13 A2998 RMK A01 T01800133  RH  074%=      5-min Rain = 0
KNH1 250912Z 20010KT 18/13 A2998 RMK A01 T01800133  RH  074%=      5-min Rain = 0
KNH1 250913Z 20011KT 18/13 A2998 RMK A01 T01800133  RH  074%=      5-min Rain = 0
KNH1 250914Z 20009KT 18/13 A2998 RMK A01 T01800133  RH  074%=      5-min Rain = 0
KNH1 250915Z 20010KT 18/13 A2998 RMK A01 T01800133  RH  074%=      5-min Rain = 0
KNH1 250916Z 20011KT 18/13 A2998 RMK A01 T01800133  RH  074%=      5-min Rain = 0
KNH1 250917Z 20010KT 18/13 A2998 RMK A01 T01800133  RH  074%=      5-min Rain = 0
KNH1 250918Z 20010KT 18/13 A2998 RMK A01 T01800133  RH  074%=      5-min Rain = 0
KNH1 250919Z 20011KT 18/13 A2998 RMK A01 T01800133  RH  074%=      5-min Rain = 0
KNH1 250920Z 20011KT 18/13 A2998 RMK A01 T01790133  RH  074%=      5-min Rain = 0
KNH1 250921Z 21010KT 18/13 A2998 RMK A01 T01790133  RH  074%=      5-min Rain = 0
KNH1 250922Z 20010KT 18/13 A2998 RMK A01 T01790133  RH  074%=      5-min Rain = 0
KNH1 250923Z 21010KT 18/13 A2998 RMK A01 T01790134  RH  075%=      5-min Rain = 0
KNH1 250924Z 21010KT 18/13 A2998 RMK A01 T01790134  RH  075%=      5-min Rain = 0
KNH1 250925Z 21010KT 18/13 A2998 RMK A01 T01790134  RH  075%=      5-min Rain = 0
KNH1 250926Z 21010KT 18/13 A2998 RMK A01 T01790134  RH  075%=      5-min Rain = 0
KNH1 250927Z 21009KT 18/13 A2999 RMK A01 T01780134  RH  075%=      5-min Rain = 0
KNH1 250928Z 21010KT 18/13 A2999 RMK A01 T01780133  RH  075%=      5-min Rain = 0
KNH1 250929Z 21010KT 18/13 A2999 RMK A01 T01780134  RH  075%=      5-min Rain = 0
KNH1 250930Z 21011KT 18/13 A2999 RMK A01 T01780133  RH  075%=      5-min Rain = 0
KNH1 250931Z 21010KT 18/13 A2999 RMK A01 T01780134  RH  075%=      5-min Rain = 0
KNH1 250932Z 21010KT 18/13 A2999 RMK A01 T01780134  RH  075%=      5-min Rain = 0
KNH1 250933Z 21009KT 18/13 A2999 RMK A01 T01770133  RH  075%=      5-min Rain = 0
KNH1 250934Z 21009KT 18/13 A2999 RMK A01 T01780133  RH  075%=      5-min Rain = 0
KNH1 250935Z 21010KT 18/13 A2999 RMK A01 T01770134  RH  075%=      5-min Rain = 0
KNH1 250936Z 21010KT 18/13 A2999 RMK A01 T01770133  RH  075%=      5-min Rain = 0
KNH1 250937Z 21009KT 18/13 A2999 RMK A01 T01770133  RH  075%=      5-min Rain = 0
KNH1 250938Z 21009KT 18/13 A2999 RMK A01 T01770133  RH  075%=      5-min Rain = 0
KNH1 250939Z 22010KT 18/13 A2999 RMK A01 T01780134  RH  076%=      5-min Rain = 0
KNH1 250940Z 21010KT 18/13 A2999 RMK A01 T01770134  RH  076%=      5-min Rain = 0
KNH1 250941Z 21010KT 18/13 A2999 RMK A01 T01770134  RH  076%=      5-min Rain = 0
KNH1 250942Z 21009KT 18/13 A2999 RMK A01 T01770134  RH  076%=      5-min Rain = 0
KNH1 250943Z 21009KT 18/13 A2999 RMK A01 T01780134  RH  076%=      5-min Rain = 0
KNH1 250944Z 21010KT 18/13 A2999 RMK A01 T01770134  RH  076%=      5-min Rain = 0
KNH1 250945Z 21010KT 18/13 A2999 RMK A01 T01770134  RH  076%=      5-min Rain = 0
KNH1 250946Z 21009KT 18/13 A2999 RMK A01 T01780134  RH  076%=      5-min Rain = 0
KNH1 250947Z 21009KT 18/13 A2999 RMK A01 T01770134  RH  076%=      5-min Rain = 0
KNH1 250948Z 21009KT 18/13 A2999 RMK A01 T01780134  RH  076%=      5-min Rain = 0
KNH1 250949Z 21009KT 18/14 A2999 RMK A01 T01780135  RH  076%=      5-min Rain = 0
KNH1 250950Z 21008KT 18/14 A2999 RMK A01 T01780135  RH  076%=      5-min Rain = 0
KNH1 250951Z 21009KT 18/14 A2999 RMK A01 T01780135  RH  076%=      5-min Rain = 0
KNH1 250952Z 21009KT 18/14 A2999 RMK A01 T01770135  RH  076%=      5-min Rain = 0
KNH1 250953Z 21009KT 18/14 A2999 RMK A01 T01770135  RH  076%=      5-min Rain = 0
KNH1 250954Z 21008KT 18/14 A2999 RMK A01 T01770135  RH  076%=      5-min Rain = 0
KNH1 250955Z 21009KT 18/14 A2999 RMK A01 T01780135  RH  076%=      5-min Rain = 0
KNH1 250956Z 21009KT 18/14 A2999 RMK A01 T01780135  RH  076%=      5-min Rain = 0
KNH1 250957Z 21009KT 18/14 A2999 RMK A01 T01780135  RH  076%=      5-min Rain = 0
KNH1 250958Z 21010KT 18/14 A2999 RMK A01 T01770135  RH  076%=      5-min Rain = 0
KNH1 250959Z 21010KT 18/14 A2999 RMK A01 T01780136  RH  076%=      5-min Rain = 0
KNH1 251000Z 21010KT 18/14 A2999 RMK A01 T01770135  RH  076%=      5-min Rain = 0
KNH1 251001Z 22009KT 18/14 A2999 RMK A01 T01780135  RH  076%=      5-min Rain = 0
KNH1 251002Z 22010KT 18/14 A2999 RMK A01 T01770135  RH  076%=      5-min Rain = 0
KNH1 251003Z 21009KT 18/14 A2999 RMK A01 T01770136  RH  076%=      5-min Rain = 0
KNH1 251004Z 22010KT 18/14 A2999 RMK A01 T01770136  RH  077%=      5-min Rain = 0
KNH1 251005Z 22009KT 18/14 A2999 RMK A01 T01770136  RH  077%=      5-min Rain = 0
KNH1 251006Z 22009KT 18/14 A2999 RMK A01 T01760136  RH  077%=      5-min Rain = 0
KNH1 251007Z 22009KT 18/14 A2999 RMK A01 T01760136  RH  077%=      5-min Rain = 0
KNH1 251008Z 22009KT 18/14 A2999 RMK A01 T01760136  RH  077%=      5-min Rain = 0
KNH1 251009Z 21009KT 18/14 A2999 RMK A01 T01760136  RH  077%=      5-min Rain = 0
KNH1 251010Z 21009KT 18/14 A2999 RMK A01 T01760136  RH  077%=      5-min Rain = 0
KNH1 251011Z 21009KT 18/14 A2999 RMK A01 T01760136  RH  077%=      5-min Rain = 0
KNH1 251012Z 21009KT 18/14 A2999 RMK A01 T01760136  RH  077%=      5-min Rain = 0
KNH1 251013Z 21010KT 18/14 A2999 RMK A01 T01760136  RH  078%=      5-min Rain = 0
KNH1 251014Z 21010KT 18/14 A2999 RMK A01 T01760136  RH  077%=      5-min Rain = 0
KNH1 251015Z 21009KT 18/14 A2999 RMK A01 T01760136  RH  077%=      5-min Rain = 0
KNH1 251016Z 21009KT 18/14 A2999 RMK A01 T01760136  RH  077%=      5-min Rain = 0
KNH1 251017Z 22010KT 18/14 A2999 RMK A01 T01760136  RH  077%=      5-min Rain = 0
KNH1 251018Z 22009KT 18/14 A2999 RMK A01 T01770136  RH  077%=      5-min Rain = 0
KNH1 251019Z 22009KT 18/14 A2999 RMK A01 T01770136  RH  077%=      5-min Rain = 0
KNH1 251020Z 22009KT 18/14 A2999 RMK A01 T01760136  RH  077%=      5-min Rain = 0
KNH1 251021Z 22009KT 18/14 A2999 RMK A01 T01760136  RH  077%=      5-min Rain = 0
KNH1 251022Z 22009KT 18/14 A2999 RMK A01 T01760136  RH  077%=      5-min Rain = 0
KNH1 251023Z 22009KT 18/14 A2999 RMK A01 T01760136  RH  077%=      5-min Rain = 0
KNH1 251024Z 22009KT 18/14 A2999 RMK A01 T01760137  RH  078%=      5-min Rain = 0
KNH1 251025Z 22009KT 18/14 A2999 RMK A01 T01760137  RH  078%=      5-min Rain = 0
KNH1 251026Z 22009KT 18/14 A30 RMK A01 T01760136  RH  078%=      5-min Rain = 0
KNH1 251027Z 22009KT 18/14 A2999 RMK A01 T01760136  RH  078%=      5-min Rain = 0
KNH1 251028Z 22008KT 18/14 A2999 RMK A01 T01760136  RH  078%=      5-min Rain = 0
KNH1 251029Z 22009KT 18/14 A30 RMK A01 T01760136  RH  078%=      5-min Rain = 0
KNH1 251030Z 22009KT 18/14 A30 RMK A01 T01760136  RH  078%=      5-min Rain = 0
KNH1 251031Z 22009KT 18/14 A30 RMK A01 T01760136  RH  078%=      5-min Rain = 0
KNH1 251032Z 22009KT 18/14 A30 RMK A01 T01760136  RH  078%=      5-min Rain = 0
KNH1 251033Z 22009KT 18/14 A30 RMK A01 T01750136  RH  078%=      5-min Rain = 0
KNH1 251034Z 22009KT 18/14 A30 RMK A01 T01750136  RH  078%=      5-min Rain = 0
KNH1 251035Z 22009KT 18/14 A30 RMK A01 T01750137  RH  078%=      5-min Rain = 0
KNH1 251036Z 22009KT 18/14 A30 RMK A01 T01750136  RH  078%=      5-min Rain = 0
KNH1 251037Z 22009KT 18/14 A30 RMK A01 T01750137  RH  078%=      5-min Rain = 0
KNH1 251038Z 22009KT 18/14 A30 RMK A01 T01750137  RH  078%=      5-min Rain = 0
KNH1 251039Z 22009KT 18/14 A30 RMK A01 T01750137  RH  078%=      5-min Rain = 0
KNH1 251040Z 22009KT 18/14 A30 RMK A01 T01750137  RH  078%=      5-min Rain = 0
KNH1 251041Z 22009KT 18/14 A30 RMK A01 T01750137  RH  078%=      5-min Rain = 0
KNH1 251042Z 22008KT 18/14 A30 RMK A01 T01750137  RH  078%=      5-min Rain = 0
KNH1 251043Z 22009KT 18/14 A30 RMK A01 T01750137  RH  078%=      5-min Rain = 0
KNH1 251044Z 22009KT 18/14 A30 RMK A01 T01750137  RH  078%=      5-min Rain = 0
KNH1 251045Z 22009KT 18/14 A30 RMK A01 T01750137  RH  078%=      5-min Rain = 0
KNH1 251046Z 22009KT 18/14 A30 RMK A01 T01750137  RH  078%=      5-min Rain = 0
KNH1 251047Z 22009KT 18/14 A30 RMK A01 T01750137  RH  078%=      5-min Rain = 0
KNH1 251048Z 22009KT 18/14 A30 RMK A01 T01750137  RH  078%=      5-min Rain = 0
KNH1 251049Z 22010KT 18/14 A30 RMK A01 T01750136  RH  078%=      5-min Rain = 0
KNH1 251050Z 22009KT 18/14 A30 RMK A01 T01760137  RH  078%=      5-min Rain = 0
KNH1 251051Z 22010KT 18/14 A30 RMK A01 T01760136  RH  078%=      5-min Rain = 0
KNH1 251052Z 22010KT 18/14 A30 RMK A01 T01760136  RH  077%=      5-min Rain = 0
KNH1 251053Z 22010KT 18/14 A30 RMK A01 T01770137  RH  077%=      5-min Rain = 0
KNH1 251054Z 22010KT 18/14 A30 RMK A01 T01770136  RH  077%=      5-min Rain = 0
KNH1 251055Z 22011KT 18/14 A30 RMK A01 T01770136  RH  077%=      5-min Rain = 0
KNH1 251056Z 22010KT 18/14 A30 RMK A01 T01770136  RH  077%=      5-min Rain = 0
KNH1 251057Z 22010KT 18/14 A30 RMK A01 T01780137  RH  077%=      5-min Rain = 0
KNH1 251058Z 22010KT 18/14 A30 RMK A01 T01770136  RH  077%=      5-min Rain = 0
KNH1 251059Z 22011KT 18/14 A30 RMK A01 T01770137  RH  077%=      5-min Rain = 0
KNH1 251100Z 22010KT 18/14 A30 RMK A01 T01770137  RH  077%=      5-min Rain = 0
KNH1 251101Z 22010KT 18/14 A30 RMK A01 T01770137  RH  077%=      5-min Rain = 0
KNH1 251102Z 22010KT 18/14 A30 RMK A01 T01770137  RH  077%=      5-min Rain = 0
KNH1 251103Z 22011KT 18/14 A30 RMK A01 T01780137  RH  077%=      5-min Rain = 0
KNH1 251104Z 22011KT 18/14 A30 RMK A01 T01770136  RH  077%=      5-min Rain = 0
KNH1 251105Z 22011KT 18/14 A30 RMK A01 T01780136  RH  077%=      5-min Rain = 0
KNH1 251106Z 22011KT 18/14 A30 RMK A01 T01780136  RH  076%=      5-min Rain = 0
KNH1 251107Z 22011KT 18/14 A30 RMK A01 T01790136  RH  076%=      5-min Rain = 0
KNH1 251108Z 22011KT 18/14 A30 RMK A01 T01790136  RH  076%=      5-min Rain = 0
KNH1 251109Z 22011KT 18/14 A30 RMK A01 T01790136  RH  076%=      5-min Rain = 0
KNH1 251110Z 22011KT 18/14 A30 RMK A01 T01790136  RH  076%=      5-min Rain = 0
KNH1 251111Z 22011KT 18/14 A30 RMK A01 T01790136  RH  076%=      5-min Rain = 0
KNH1 251112Z 22011KT 18/14 A30 RMK A01 T01790136  RH  076%=      5-min Rain = 0
KNH1 251113Z 22011KT 18/14 A30 RMK A01 T01790136  RH  076%=      5-min Rain = 0
KNH1 251114Z 23011KT 18/14 A30 RMK A01 T01790136  RH  076%=      5-min Rain = 0
KNH1 251115Z 23011KT 18/14 A30 RMK A01 T01790136  RH  076%=      5-min Rain = 0
KNH1 251116Z 23011KT 18/14 A30 RMK A01 T01790136  RH  076%=      5-min Rain = 0
KNH1 251117Z 23010KT 18/14 A30 RMK A01 T01790136  RH  076%=      5-min Rain = 0
KNH1 251118Z 23010KT 18/14 A30 RMK A01 T01790136  RH  076%=      5-min Rain = 0
KNH1 251119Z 23010KT 18/14 A30 RMK A01 T01790136  RH  076%=      5-min Rain = 0
KNH1 251120Z 23010KT 18/14 A30 RMK A01 T01790136  RH  076%=      5-min Rain = 0
KNH1 251121Z 23010KT 18/14 A3001 RMK A01 T01790136  RH  076%=      5-min Rain = 0
KNH1 251122Z 23010KT 18/14 A3001 RMK A01 T01780136  RH  076%=      5-min Rain = 0
KNH1 251123Z 23009KT 18/14 A3001 RMK A01 T01780136  RH  076%=      5-min Rain = 0
KNH1 251124Z 23009KT 18/14 A3001 RMK A01 T01780136  RH  076%=      5-min Rain = 0
KNH1 251125Z 23009KT 18/14 A3001 RMK A01 T01790136  RH  076%=      5-min Rain = 0
KNH1 251126Z 23010KT 18/14 A3001 RMK A01 T01800136  RH  076%=      5-min Rain = 0
KNH1 251127Z 23011KT 18/14 A3001 RMK A01 T01800136  RH  076%=      5-min Rain = 0
KNH1 251128Z 23010KT 18/14 A3001 RMK A01 T01800136  RH  075%=      5-min Rain = 0
KNH1 251129Z 23010KT 18/14 A3001 RMK A01 T01810136  RH  075%=      5-min Rain = 0
KNH1 251130Z 23010KT 18/14 A3001 RMK A01 T01810136  RH  075%=      5-min Rain = 0
KNH1 251131Z 23010KT 18/14 A3001 RMK A01 T01810136  RH  075%=      5-min Rain = 0
KNH1 251132Z 23011KT 18/14 A3001 RMK A01 T01810136  RH  075%=      5-min Rain = 0
KNH1 251133Z 23010KT 18/14 A3001 RMK A01 T01820137  RH  075%=      5-min Rain = 0
KNH1 251134Z 23010KT 18/14 A3001 RMK A01 T01820136  RH  075%=      5-min Rain = 0
KNH1 251135Z 22009KT 18/14 A3001 RMK A01 T01820137  RH  075%=      5-min Rain = 0
KNH1 251136Z 23009KT 18/14 A3001 RMK A01 T01810137  RH  075%=      5-min Rain = 0
KNH1 251137Z 23009KT 18/14 A3001 RMK A01 T01810136  RH  075%=      5-min Rain = 0
KNH1 251138Z 23009KT 18/14 A3001 RMK A01 T01800136  RH  075%=      5-min Rain = 0
KNH1 251139Z 23009KT 18/14 A3001 RMK A01 T01800136  RH  076%=      5-min Rain = 0
KNH1 251140Z 23009KT 18/14 A3001 RMK A01 T01800137  RH  076%=      5-min Rain = 0
KNH1 251141Z 23009KT 18/14 A3001 RMK A01 T01800136  RH  075%=      5-min Rain = 0
KNH1 251142Z 23009KT 18/14 A3001 RMK A01 T01800136  RH  075%=      5-min Rain = 0
KNH1 251143Z 23008KT 18/14 A3001 RMK A01 T01800136  RH  075%=      5-min Rain = 0
KNH1 251144Z 23008KT 18/14 A3001 RMK A01 T01800136  RH  075%=      5-min Rain = 0
KNH1 251145Z 23008KT 18/14 A3001 RMK A01 T01800136  RH  075%=      5-min Rain = 0
KNH1 251146Z 23009KT 18/14 A3001 RMK A01 T01800136  RH  076%=      5-min Rain = 0
KNH1 251147Z 23008KT 18/14 A3001 RMK A01 T01790136  RH  076%=      5-min Rain = 0
KNH1 251148Z 23008KT 18/14 A3002 RMK A01 T01790136  RH  076%=      5-min Rain = 0
KNH1 251149Z 23008KT 18/14 A3002 RMK A01 T01790136  RH  076%=      5-min Rain = 0
KNH1 251150Z 23008KT 18/14 A3002 RMK A01 T01780136  RH  076%=      5-min Rain = 0
KNH1 251151Z 23008KT 18/14 A3002 RMK A01 T01780136  RH  077%=      5-min Rain = 0
KNH1 251152Z 23008KT 18/14 A3002 RMK A01 T01780136  RH  077%=      5-min Rain = 0
KNH1 251153Z 23008KT 18/14 A3002 RMK A01 T01780137  RH  077%=      5-min Rain = 0
KNH1 251154Z 23008KT 18/14 A3002 RMK A01 T01770136  RH  077%=      5-min Rain = 0
KNH1 251155Z 23008KT 18/14 A3002 RMK A01 T01770136  RH  077%=      5-min Rain = 0
KNH1 251156Z 23008KT 18/14 A3002 RMK A01 T01770136  RH  077%=      5-min Rain = 0
KNH1 251157Z 23008KT 18/14 A3002 RMK A01 T01770136  RH  077%=      5-min Rain = 0
KNH1 251158Z 23007KT 18/14 A3002 RMK A01 T01770136  RH  077%=      5-min Rain = 0
KNH1 251159Z 23007KT 18/14 A3002 RMK A01 T01770136  RH  077%=      5-min Rain = 0
KNH1 251200Z 23007KT 18/14 A3002 RMK A01 T01780136  RH  077%=      5-min Rain = 0
KNH1 251201Z 23007KT 18/14 A3002 RMK A01 T01770136  RH  077%=      5-min Rain = 0
KNH1 251202Z 23008KT 18/14 A3002 RMK A01 T01770136  RH  077%=      5-min Rain = 0
KNH1 251203Z 23007KT 18/14 A3002 RMK A01 T01770136  RH  077%=      5-min Rain = 0
KNH1 251204Z 24008KT 18/14 A3002 RMK A01 T01770137  RH  077%=      5-min Rain = 0
KNH1 251205Z 24007KT 18/14 A3002 RMK A01 T01780137  RH  077%=      5-min Rain = 0
KNH1 251206Z 24007KT 18/14 A3002 RMK A01 T01770137  RH  077%=      5-min Rain = 0
KNH1 251207Z 23007KT 18/14 A3002 RMK A01 T01770137  RH  077%=      5-min Rain = 0
KNH1 251208Z 24007KT 18/14 A3002 RMK A01 T01770137  RH  077%=      5-min Rain = 0
KNH1 251209Z 24008KT 18/14 A3002 RMK A01 T01770137  RH  077%=      5-min Rain = 0
KNH1 251210Z 24008KT 18/14 A3002 RMK A01 T01770136  RH  077%=      5-min Rain = 0
KNH1 251211Z 23008KT 18/14 A3003 RMK A01 T01780136  RH  077%=      5-min Rain = 0
KNH1 251212Z 23007KT 18/14 A3003 RMK A01 T01780136  RH  076%=      5-min Rain = 0
KNH1 251213Z 23008KT 18/14 A3003 RMK A01 T01790136  RH  076%=      5-min Rain = 0
KNH1 251214Z 23008KT 18/14 A3003 RMK A01 T01790136  RH  076%=      5-min Rain = 0
KNH1 251215Z 23009KT 18/14 A3003 RMK A01 T01800136  RH  076%=      5-min Rain = 0
KNH1 251216Z 23009KT 18/14 A3003 RMK A01 T01800136  RH  075%=      5-min Rain = 0
KNH1 251217Z 23010KT 18/14 A3003 RMK A01 T01810137  RH  075%=      5-min Rain = 0
KNH1 251218Z 23010KT 18/14 A3003 RMK A01 T01820137  RH  075%=      5-min Rain = 0
KNH1 251219Z 23010KT 18/14 A3003 RMK A01 T01830136  RH  074%=      5-min Rain = 0
KNH1 251220Z 23010KT 18/14 A3003 RMK A01 T01840137  RH  074%=      5-min Rain = 0
KNH1 251221Z 23010KT 18/14 A3003 RMK A01 T01840137  RH  074%=      5-min Rain = 0
KNH1 251222Z 24010KT 19/14 A3003 RMK A01 T01850137  RH  074%=      5-min Rain = 0
KNH1 251223Z 23010KT 19/14 A3003 RMK A01 T01850137  RH  074%=      5-min Rain = 0
KNH1 251224Z 23010KT 19/14 A3003 RMK A01 T01860137  RH  073%=      5-min Rain = 0
KNH1 251225Z 23010KT 19/14 A3003 RMK A01 T01850137  RH  073%=      5-min Rain = 0
KNH1 251226Z 23010KT 19/14 A3003 RMK A01 T01860137  RH  073%=      5-min Rain = 0
KNH1 251227Z 23010KT 19/14 A3003 RMK A01 T01870137  RH  073%=      5-min Rain = 0
KNH1 251228Z 23011KT 19/14 A3003 RMK A01 T01870137  RH  073%=      5-min Rain = 0
KNH1 251229Z 23010KT 19/14 A3003 RMK A01 T01880137  RH  072%=      5-min Rain = 0
KNH1 251230Z 23010KT 19/14 A3003 RMK A01 T01880137  RH  072%=      5-min Rain = 0
KNH1 251231Z 23011KT 19/14 A3003 RMK A01 T01880137  RH  072%=      5-min Rain = 0
KNH1 251232Z 23010KT 19/14 A3003 RMK A01 T01890137  RH  072%=      5-min Rain = 0
KNH1 251233Z 23009KT 19/14 A3003 RMK A01 T01880137  RH  072%=      5-min Rain = 0
KNH1 251234Z 24009KT 19/14 A3003 RMK A01 T01890138  RH  072%=      5-min Rain = 0
KNH1 251235Z 24009KT 19/14 A3003 RMK A01 T01890138  RH  072%=      5-min Rain = 0
KNH1 251236Z 24009KT 19/14 A3003 RMK A01 T01890138  RH  072%=      5-min Rain = 0
KNH1 251237Z 24009KT 19/14 A3003 RMK A01 T01890137  RH  072%=      5-min Rain = 0
KNH1 251238Z 24009KT 19/14 A3003 RMK A01 T01890138  RH  072%=      5-min Rain = 0
KNH1 251239Z 24008KT 19/14 A3003 RMK A01 T01890138  RH  072%=      5-min Rain = 0
KNH1 251240Z 24009KT 19/14 A3003 RMK A01 T01890138  RH  072%=      5-min Rain = 0
KNH1 251241Z 23009KT 19/14 A3003 RMK A01 T01890138  RH  072%=      5-min Rain = 0
KNH1 251242Z 24009KT 19/14 A3003 RMK A01 T01900138  RH  072%=      5-min Rain = 0
KNH1 251243Z 24011KT 19/14 A3003 RMK A01 T01900137  RH  071%=      5-min Rain = 0
KNH1 251244Z 24010KT 19/14 A3003 RMK A01 T01910137  RH  071%=      5-min Rain = 0
KNH1 251245Z 23009KT 19/14 A3003 RMK A01 T01910137  RH  071%=      5-min Rain = 0
KNH1 251246Z 24008KT 19/14 A3003 RMK A01 T01910137  RH  071%=      5-min Rain = 0
KNH1 251247Z 24009KT 19/14 A3003 RMK A01 T01910137  RH  071%=      5-min Rain = 0
KNH1 251248Z 24009KT 19/14 A3003 RMK A01 T01920138  RH  071%=      5-min Rain = 0
KNH1 251249Z 24009KT 19/14 A3003 RMK A01 T01920138  RH  071%=      5-min Rain = 0
KNH1 251250Z 24009KT 19/14 A3003 RMK A01 T01930137  RH  070%=      5-min Rain = 0
KNH1 251251Z 24009KT 19/14 A3003 RMK A01 T01930138  RH  070%=      5-min Rain = 0
KNH1 251252Z 24010KT 19/14 A3003 RMK A01 T01930138  RH  070%=      5-min Rain = 0
KNH1 251253Z 24008KT 19/14 A3003 RMK A01 T01930138  RH  070%=      5-min Rain = 0
KNH1 251254Z 24009KT 19/14 A3003 RMK A01 T01940138  RH  070%=      5-min Rain = 0
KNH1 251255Z 24010KT 20/14 A3003 RMK A01 T01950138  RH  070%=      5-min Rain = 0
KNH1 251256Z 24009KT 20/14 A3003 RMK A01 T01950139  RH  070%=      5-min Rain = 0
KNH1 251257Z 24010KT 20/14 A3003 RMK A01 T01960139  RH  069%=      5-min Rain = 0
KNH1 251258Z 23009KT 20/14 A3003 RMK A01 T01970139  RH  069%=      5-min Rain = 0
KNH1 251259Z 23011KT 20/14 A3003 RMK A01 T01980139  RH  068%=      5-min Rain = 0
KNH1 251300Z 23011KT 20/14 A3003 RMK A01 T01990138  RH  068%=      5-min Rain = 0
KNH1 251301Z 23010KT 20/14 A3003 RMK A01 T01990138  RH  068%=      5-min Rain = 0
KNH1 251302Z 23009KT 20/14 A3003 RMK A01 T02000138  RH  068%=      5-min Rain = 0
KNH1 251303Z 23008KT 20/14 A3003 RMK A01 T02000139  RH  068%=      5-min Rain = 0
KNH1 251304Z 22010KT 20/14 A3003 RMK A01 T02010138  RH  067%=      5-min Rain = 0
KNH1 251305Z 23010KT 20/14 A3004 RMK A01 T02010139  RH  067%=      5-min Rain = 0
KNH1 251306Z 23011KT 20/14 A3004 RMK A01 T02010138  RH  067%=      5-min Rain = 0
KNH1 251307Z 23010KT 20/14 A3004 RMK A01 T02010138  RH  067%=      5-min Rain = 0
KNH1 251308Z 22010KT 20/14 A3004 RMK A01 T02010139  RH  067%=      5-min Rain = 0
KNH1 251309Z 22012KT 20/14 A3004 RMK A01 T02020139  RH  067%=      5-min Rain = 0
KNH1 251310Z 23011KT 20/14 A3004 RMK A01 T02020139  RH  067%=      5-min Rain = 0
KNH1 251311Z 23010KT 20/14 A3004 RMK A01 T02020139  RH  067%=      5-min Rain = 0
KNH1 251312Z 23011KT 20/14 A3004 RMK A01 T02030140  RH  067%=      5-min Rain = 0
KNH1 251313Z 23012KT 20/14 A3004 RMK A01 T02040140  RH  067%=      5-min Rain = 0
KNH1 251314Z 22011KT 20/14 A3004 RMK A01 T02040140  RH  067%=      5-min Rain = 0
KNH1 251315Z 23012KT 20/14 A3004 RMK A01 T02040140  RH  067%=      5-min Rain = 0
KNH1 251316Z 23012KT 21/14 A3004 RMK A01 T02050140  RH  067%=      5-min Rain = 0
KNH1 251317Z 23012KT 20/14 A3004 RMK A01 T02040141  RH  067%=      5-min Rain = 0
KNH1 251318Z 22011KT 21/14 A3004 RMK A01 T02050141  RH  067%=      5-min Rain = 0
KNH1 251319Z 23012KT 21/14 A3004 RMK A01 T02050142  RH  067%=      5-min Rain = 0
KNH1 251320Z 22012KT 21/14 A3004 RMK A01 T02060143  RH  067%=      5-min Rain = 0
KNH1 251321Z 23012KT 21/14 A3004 RMK A01 T02070143  RH  067%=      5-min Rain = 0
KNH1 251322Z 22010KT 21/14 A3004 RMK A01 T02070144  RH  067%=      5-min Rain = 0
KNH1 251323Z 22012KT 21/15 A3004 RMK A01 T02090145  RH  067%=      5-min Rain = 0
KNH1 251324Z 23012KT 21/15 A3004 RMK A01 T02090145  RH  067%=      5-min Rain = 0
KNH1 251325Z 23012KT 21/15 A3004 RMK A01 T02100146  RH  067%=      5-min Rain = 0
KNH1 251326Z 23013KT 21/15 A3004 RMK A01 T02110146  RH  066%=      5-min Rain = 0
KNH1 251327Z 23013KT 21/15 A3004 RMK A01 T02110147  RH  067%=      5-min Rain = 0
KNH1 251328Z 22014KT 21/15 A3004 RMK A01 T02120148  RH  067%=      5-min Rain = 0
KNH1 251329Z 22015KT 21/15 A3004 RMK A01 T02130148  RH  066%=      5-min Rain = 0
KNH1 251330Z 23014KT 21/15 A3004 RMK A01 T02130148  RH  066%=      5-min Rain = 0
KNH1 251331Z 23013KT 21/15 A3004 RMK A01 T02140148  RH  066%=      5-min Rain = 0
KNH1 251332Z 23013G19KT 22/15 A3004 RMK A01 T02150149  RH  066%=      5-min Rain = 0
KNH1 251333Z 23016KT 22/15 A3004 RMK A01 T02160150  RH  066%=      5-min Rain = 0
KNH1 251334Z 22016KT 22/15 A3004 RMK A01 T02160151  RH  066%=      5-min Rain = 0
KNH1 251335Z 23014KT 22/15 A3004 RMK A01 T02160151  RH  067%=      5-min Rain = 0
KNH1 251336Z 22017G22KT 22/15 A3004 RMK A01 T02170154  RH  067%=      5-min Rain = 0
KNH1 251337Z 23015KT 22/15 A3004 RMK A01 T02180154  RH  067%=      5-min Rain = 0
KNH1 251338Z 23015KT 22/15 A3004 RMK A01 T02180153  RH  067%=      5-min Rain = 0
KNH1 251339Z 23016KT 22/15 A3004 RMK A01 T02180153  RH  067%=      5-min Rain = 0
KNH1 251340Z 23014KT 22/15 A3004 RMK A01 T02190154  RH  067%=      5-min Rain = 0
KNH1 251341Z 22015KT 22/15 A3004 RMK A01 T02190154  RH  067%=      5-min Rain = 0
KNH1 251342Z 23020KT 22/16 A3004 RMK A01 T02190155  RH  067%=      5-min Rain = 0
KNH1 251343Z 23017KT 22/16 A3004 RMK A01 T02190157  RH  068%=      5-min Rain = 0
KNH1 251344Z 22015KT 22/16 A3004 RMK A01 T02190155  RH  067%=      5-min Rain = 0
KNH1 251345Z 23014KT 22/16 A3004 RMK A01 T02190155  RH  067%=      5-min Rain = 0
KNH1 251346Z 22016KT 22/16 A3004 RMK A01 T02200156  RH  067%=      5-min Rain = 0
KNH1 251347Z 23014KT 22/16 A3004 RMK A01 T02210156  RH  066%=      5-min Rain = 0
KNH1 251348Z 23018KT 22/16 A3004 RMK A01 T02220156  RH  066%=      5-min Rain = 0
KNH1 251349Z 23017KT 22/16 A3004 RMK A01 T02210159  RH  068%=      5-min Rain = 0
KNH1 251350Z 23017KT 22/16 A3004 RMK A01 T02210159  RH  068%=      5-min Rain = 0
KNH1 251351Z 22015KT 22/16 A3005 RMK A01 T02210158  RH  068%=      5-min Rain = 0
KNH1 251352Z 23017KT 22/16 A3004 RMK A01 T02220160  RH  068%=      5-min Rain = 0
KNH1 251353Z 23017KT 22/16 A3004 RMK A01 T02220160  RH  068%=      5-min Rain = 0
KNH1 251354Z 23017KT 22/16 A3004 RMK A01 T02220161  RH  068%=      5-min Rain = 0
KNH1 251355Z 23017KT 22/16 A3004 RMK A01 T02220160  RH  068%=      5-min Rain = 0
KNH1 251356Z 23017KT 22/16 A3004 RMK A01 T02230160  RH  068%=      5-min Rain = 0
KNH1 251357Z 23015KT 22/16 A3004 RMK A01 T02230162  RH  068%=      5-min Rain = 0
KNH1 251358Z 23017KT 23/16 A3004 RMK A01 T02250163  RH  068%=      5-min Rain = 0
KNH1 251359Z 23016KT 22/16 A3004 RMK A01 T02240163  RH  068%=      5-min Rain = 0
KNH1 251400Z 23018KT 23/16 A3004 RMK A01 T02250163  RH  068%=      5-min Rain = 0
KNH1 251401Z 23017KT 23/16 A3004 RMK A01 T02250163  RH  068%=      5-min Rain = 0
KNH1 251402Z 23015KT 23/17 A3004 RMK A01 T02260165  RH  069%=      5-min Rain = 0
KNH1 251403Z 23019KT 23/17 A3004 RMK A01 T02270165  RH  068%=      5-min Rain = 0
KNH1 251404Z 23019KT 23/17 A3004 RMK A01 T02280165  RH  068%=      5-min Rain = 0
KNH1 251405Z 23017KT 23/17 A3004 RMK A01 T02280166  RH  068%=      5-min Rain = 0
KNH1 251406Z 23017KT 23/17 A3004 RMK A01 T02280166  RH  068%=      5-min Rain = 0
KNH1 251407Z 23017KT 23/17 A3004 RMK A01 T02280167  RH  068%=      5-min Rain = 0
KNH1 251408Z 23017KT 23/17 A3004 RMK A01 T02300168  RH  068%=      5-min Rain = 0
KNH1 251409Z 23016KT 23/17 A3004 RMK A01 T02310168  RH  068%=      5-min Rain = 0
KNH1 251410Z 23018KT 23/17 A3004 RMK A01 T02320170  RH  068%=      5-min Rain = 0
KNH1 251411Z 23017KT 23/17 A3004 RMK A01 T02330170  RH  068%=      5-min Rain = 0
KNH1 251412Z 22018KT 23/17 A3004 RMK A01 T02330170  RH  068%=      5-min Rain = 0
KNH1 251413Z 23018KT 23/17 A3004 RMK A01 T02340170  RH  067%=      5-min Rain = 0
KNH1 251414Z 22019KT 23/17 A3004 RMK A01 T02340171  RH  068%=      5-min Rain = 0
KNH1 251415Z 24019KT 23/17 A3004 RMK A01 T02330171  RH  068%=      5-min Rain = 0
KNH1 251416Z 24019KT 23/17 A3004 RMK A01 T02340171  RH  068%=      5-min Rain = 0
KNH1 251417Z 23019KT 24/17 A3004 RMK A01 T02350171  RH  068%=      5-min Rain = 0
KNH1 251418Z 23019KT 24/17 A3004 RMK A01 T02350171  RH  067%=      5-min Rain = 0
KNH1 251419Z 23018KT 24/17 A3004 RMK A01 T02350170  RH  067%=      5-min Rain = 0
KNH1 251420Z 24016KT 24/17 A3004 RMK A01 T02350171  RH  067%=      5-min Rain = 0
KNH1 251421Z 23018KT 24/17 A3004 RMK A01 T02380171  RH  066%=      5-min Rain = 0
KNH1 251422Z 23020KT 24/17 A3004 RMK A01 T02380171  RH  066%=      5-min Rain = 0
KNH1 251423Z 24021KT 24/17 A3004 RMK A01 T02380171  RH  066%=      5-min Rain = 0
KNH1 251424Z 24019KT 24/17 A3004 RMK A01 T02360171  RH  067%=      5-min Rain = 0
KNH1 251425Z 24021KT 24/17 A3004 RMK A01 T02370170  RH  066%=      5-min Rain = 0
KNH1 251426Z 23020KT 24/17 A3004 RMK A01 T02380170  RH  066%=      5-min Rain = 0
KNH1 251427Z 23020KT 24/17 A3004 RMK A01 T02380170  RH  066%=      5-min Rain = 0
KNH1 251428Z 22020KT 24/17 A3004 RMK A01 T02370169  RH  066%=      5-min Rain = 0
KNH1 251429Z 23019KT 24/17 A3004 RMK A01 T02380169  RH  065%=      5-min Rain = 0
KNH1 251430Z 22019KT 24/17 A3005 RMK A01 T02380170  RH  066%=      5-min Rain = 0
KNH1 251431Z 22020KT 24/17 A3005 RMK A01 T02380169  RH  065%=      5-min Rain = 0
KNH1 251432Z 22019KT 24/17 A3005 RMK A01 T02390170  RH  065%=      5-min Rain = 0
KNH1 251433Z 23017KT 24/17 A3005 RMK A01 T02390170  RH  065%=      5-min Rain = 0
KNH1 251434Z 22018KT 24/17 A3004 RMK A01 T02420171  RH  064%=      5-min Rain = 0
KNH1 251435Z 23018KT 24/17 A3004 RMK A01 T02430170  RH  064%=      5-min Rain = 0
KNH1 251436Z 23017KT 24/17 A3004 RMK A01 T02420170  RH  064%=      5-min Rain = 0
KNH1 251437Z 24017KT 24/17 A3004 RMK A01 T02420171  RH  064%=      5-min Rain = 0
KNH1 251438Z 24019KT 24/17 A3004 RMK A01 T02430171  RH  064%=      5-min Rain = 0
KNH1 251439Z 23017KT 24/17 A3004 RMK A01 T02430171  RH  064%=      5-min Rain = 0
KNH1 251440Z 23015KT 24/17 A3005 RMK A01 T02430171  RH  064%=      5-min Rain = 0
KNH1 251441Z 23016KT 25/17 A3004 RMK A01 T02450172  RH  064%=      5-min Rain = 0
KNH1 251442Z 23018KT 25/17 A3004 RMK A01 T02460171  RH  063%=      5-min Rain = 0
KNH1 251443Z 22018KT 25/17 A3004 RMK A01 T02460170  RH  063%=      5-min Rain = 0
KNH1 251444Z 23017KT 25/17 A3005 RMK A01 T02460170  RH  062%=      5-min Rain = 0
KNH1 251445Z 23019KT 25/17 A3005 RMK A01 T02470171  RH  062%=      5-min Rain = 0
KNH1 251446Z 23020KT 25/17 A3004 RMK A01 T02470170  RH  062%=      5-min Rain = 0
KNH1 251447Z 23018G24KT 25/17 A3004 RMK A01 T02470170  RH  062%=      5-min Rain = 0
KNH1 251448Z 23021KT 25/17 A3004 RMK A01 T02460169  RH  062%=      5-min Rain = 0
KNH1 251449Z 23018KT 25/17 A3004 RMK A01 T02460170  RH  063%=      5-min Rain = 0
KNH1 251450Z 24016KT 25/17 A3004 RMK A01 T02470170  RH  062%=      5-min Rain = 0
KNH1 251451Z 23015KT 25/17 A3004 RMK A01 T02480171  RH  062%=      5-min Rain = 0
KNH1 251452Z 24017KT 25/17 A3004 RMK A01 T02510173  RH  062%=      5-min Rain = 0
KNH1 251453Z 23017KT 25/17 A3004 RMK A01 T02530171  RH  060%=      5-min Rain = 0
KNH1 251454Z 24016KT 25/17 A3004 RMK A01 T02520172  RH  061%=      5-min Rain = 0
KNH1 251455Z 24015KT 25/17 A3004 RMK A01 T02520171  RH  061%=      5-min Rain = 0
KNH1 251456Z 22017KT 25/17 A3004 RMK A01 T02530170  RH  060%=      5-min Rain = 0
KNH1 251457Z 23016G21KT 25/17 A3004 RMK A01 T02530171  RH  060%=      5-min Rain = 0
KNH1 251458Z 22019KT 25/17 A3004 RMK A01 T02520170  RH  060%=      5-min Rain = 0
KNH1 251459Z 23016KT 25/17 A3004 RMK A01 T02510170  RH  061%=      5-min Rain = 0
KNH1 251500Z 22016KT 25/17 A3004 RMK A01 T02500170  RH  061%=      5-min Rain = 0
KNH1 251501Z 23015KT 25/17 A3004 RMK A01 T02500171  RH  061%=      5-min Rain = 0
KNH1 251502Z 22015KT 25/17 A3004 RMK A01 T02510171  RH  061%=      5-min Rain = 0
KNH1 251503Z 22016KT 25/17 A3004 RMK A01 T02520172  RH  061%=      5-min Rain = 0
KNH1 251504Z 22015KT 25/17 A3005 RMK A01 T02540170  RH  060%=      5-min Rain = 0
KNH1 251505Z 23015KT 25/17 A3005 RMK A01 T02540171  RH  060%=      5-min Rain = 0
KNH1 251506Z 23015KT 25/17 A3005 RMK A01 T02530171  RH  060%=      5-min Rain = 0
KNH1 251507Z 23013G18KT 25/17 A3005 RMK A01 T02520171  RH  061%=      5-min Rain = 0
KNH1 251508Z 24017KT 25/17 A3005 RMK A01 T02520171  RH  061%=      5-min Rain = 0
KNH1 251509Z 23012KT 25/17 A3005 RMK A01 T02530171  RH  060%=      5-min Rain = 0
KNH1 251510Z 24015KT 26/17 A3005 RMK A01 T02550172  RH  060%=      5-min Rain = 0
KNH1 251511Z 23017KT 26/17 A3005 RMK A01 T02570171  RH  059%=      5-min Rain = 0
KNH1 251512Z 23016KT 26/17 A3004 RMK A01 T02550170  RH  059%=      5-min Rain = 0
KNH1 251513Z 24015KT 26/17 A3005 RMK A01 T02550171  RH  060%=      5-min Rain = 0
KNH1 251514Z 24018KT 26/17 A3005 RMK A01 T02570171  RH  059%=      5-min Rain = 0
KNH1 251515Z 23017KT 26/17 A3004 RMK A01 T02560170  RH  059%=      5-min Rain = 0
KNH1 251516Z 23017KT 26/17 A3004 RMK A01 T02560169  RH  059%=      5-min Rain = 0
KNH1 251517Z 25015KT 26/17 A3004 RMK A01 T02560171  RH  059%=      5-min Rain = 0
KNH1 251518Z 24015KT 26/17 A3004 RMK A01 T02580171  RH  059%=      5-min Rain = 0
KNH1 251519Z 24014KT 26/17 A3004 RMK A01 T02590172  RH  058%=      5-min Rain = 0
KNH1 251520Z 24014KT 26/17 A3004 RMK A01 T02610172  RH  058%=      5-min Rain = 0
KNH1 251521Z 23014KT 26/17 A3004 RMK A01 T02620171  RH  057%=      5-min Rain = 0
KNH1 251522Z 24013KT 26/17 A3004 RMK A01 T02630173  RH  058%=      5-min Rain = 0
KNH1 251523Z 22014KT 26/17 A3004 RMK A01 T02640171  RH  057%=      5-min Rain = 0
KNH1 251524Z 23014KT 27/17 A3004 RMK A01 T02650173  RH  057%=      5-min Rain = 0
KNH1 251525Z 22015KT 27/17 A3004 RMK A01 T02670171  RH  056%=      5-min Rain = 0
KNH1 251526Z 22016KT 27/17 A3004 RMK A01 T02660171  RH  056%=      5-min Rain = 0
KNH1 251527Z 22017KT 27/17 A3004 RMK A01 T02660171  RH  056%=      5-min Rain = 0
KNH1 251528Z 22014KT 26/17 A3004 RMK A01 T02640171  RH  056%=      5-min Rain = 0
KNH1 251529Z 22013KT 26/17 A3004 RMK A01 T02640172  RH  057%=      5-min Rain = 0
KNH1 251530Z 22015KT 26/17 A3004 RMK A01 T02640171  RH  057%=      5-min Rain = 0
KNH1 251531Z 23017KT 27/17 A3004 RMK A01 T02660172  RH  056%=      5-min Rain = 0
KNH1 251532Z 23015KT 27/17 A3004 RMK A01 T02670171  RH  056%=      5-min Rain = 0
KNH1 251533Z 23015KT 27/17 A3004 RMK A01 T02660172  RH  056%=      5-min Rain = 0
KNH1 251534Z 22015KT 27/17 A3004 RMK A01 T02660170  RH  056%=      5-min Rain = 0
KNH1 251535Z 22015KT 27/17 A3004 RMK A01 T02660170  RH  056%=      5-min Rain = 0
KNH1 251536Z 22014KT 27/17 A3004 RMK A01 T02670170  RH  055%=      5-min Rain = 0
KNH1 251537Z 21017KT 27/17 A3004 RMK A01 T02700170  RH  054%=      5-min Rain = 0
KNH1 251538Z 23016KT 27/17 A3004 RMK A01 T02700169  RH  054%=      5-min Rain = 0
KNH1 251539Z 23015KT 27/17 A3004 RMK A01 T02690170  RH  055%=      5-min Rain = 0
KNH1 251540Z 22016KT 27/17 A3004 RMK A01 T02680169  RH  055%=      5-min Rain = 0
KNH1 251541Z 23016KT 27/17 A3004 RMK A01 T02690169  RH  054%=      5-min Rain = 0
KNH1 251542Z 23017KT 27/17 A3004 RMK A01 T02700168  RH  054%=      5-min Rain = 0
KNH1 251543Z 23015KT 27/17 A3004 RMK A01 T02690169  RH  054%=      5-min Rain = 0
KNH1 251544Z 23013KT 27/17 A3004 RMK A01 T02680169  RH  055%=      5-min Rain = 0
KNH1 251545Z 22014KT 27/17 A3004 RMK A01 T02680169  RH  055%=      5-min Rain = 0
KNH1 251546Z 22014KT 27/17 A3004 RMK A01 T02690169  RH  054%=      5-min Rain = 0
KNH1 251547Z 21012KT 27/17 A3004 RMK A01 T02710169  RH  054%=      5-min Rain = 0
KNH1 251548Z 21014KT 27/17 A3004 RMK A01 T02710170  RH  054%=      5-min Rain = 0
KNH1 251549Z 21014KT 27/17 A3004 RMK A01 T02710170  RH  054%=      5-min Rain = 0
KNH1 251550Z 23013KT 27/17 A3004 RMK A01 T02720170  RH  054%=      5-min Rain = 0
KNH1 251551Z 23014KT 27/17 A3004 RMK A01 T02730170  RH  053%=      5-min Rain = 0
KNH1 251552Z 23013KT 27/17 A3004 RMK A01 T02730171  RH  054%=      5-min Rain = 0
KNH1 251553Z 22014KT 27/17 A3004 RMK A01 T02730169  RH  053%=      5-min Rain = 0
KNH1 251554Z 21015KT 28/17 A3004 RMK A01 T02760169  RH  052%=      5-min Rain = 0
KNH1 251555Z 23013KT 28/17 A3004 RMK A01 T02770168  RH  051%=      5-min Rain = 0
KNH1 251556Z 22016KT 28/17 A3004 RMK A01 T02770167  RH  051%=      5-min Rain = 0
KNH1 251557Z 23014KT 28/17 A3004 RMK A01 T02760166  RH  051%=      5-min Rain = 0
KNH1 251558Z 22012KT 28/17 A3004 RMK A01 T02750167  RH  052%=      5-min Rain = 0
KNH1 251559Z 23012KT 28/17 A3004 RMK A01 T02750168  RH  052%=      5-min Rain = 0
KNH1 251600Z 21016KT 28/17 A3004 RMK A01 T02760167  RH  051%=      5-min Rain = 0
KNH1 251601Z 22014KT 28/17 A3004 RMK A01 T02750166  RH  052%=      5-min Rain = 0
KNH1 251602Z 22012KT 28/17 A3004 RMK A01 T02750166  RH  051%=      5-min Rain = 0
KNH1 251603Z 22014KT 28/17 A3004 RMK A01 T02760167  RH  051%=      5-min Rain = 0
KNH1 251604Z 22014KT 28/17 A3004 RMK A01 T02780166  RH  051%=      5-min Rain = 0
KNH1 251605Z 21015KT 28/17 A3004 RMK A01 T02780167  RH  051%=      5-min Rain = 0
KNH1 251606Z 21015KT 28/17 A3004 RMK A01 T02800166  RH  050%=      5-min Rain = 0
KNH1 251607Z 22017KT 28/16 A3004 RMK A01 T02800164  RH  049%=      5-min Rain = 0
KNH1 251608Z 22015KT 28/16 A3004 RMK A01 T02800164  RH  049%=      5-min Rain = 0
KNH1 251609Z 22015KT 28/16 A3004 RMK A01 T02790162  RH  049%=      5-min Rain = 0
KNH1 251610Z 21013KT 28/16 A3004 RMK A01 T02790164  RH  050%=      5-min Rain = 0
KNH1 251611Z 21015KT 28/17 A3004 RMK A01 T02810165  RH  049%=      5-min Rain = 0
KNH1 251612Z 22015KT 28/16 A3005 RMK A01 T02820164  RH  049%=      5-min Rain = 0
KNH1 251613Z 21014KT 28/16 A3005 RMK A01 T02830164  RH  049%=      5-min Rain = 0
KNH1 251614Z 20014KT 28/16 A3005 RMK A01 T02820164  RH  049%=      5-min Rain = 0
KNH1 251615Z 21012KT 28/16 A3005 RMK A01 T02800164  RH  049%=      5-min Rain = 0
KNH1 251616Z 22011KT 28/17 A3005 RMK A01 T02790165  RH  050%=      5-min Rain = 0
KNH1 251617Z 21012KT 28/17 A3005 RMK A01 T02810167  RH  050%=      5-min Rain = 0
KNH1 251618Z 21012KT 29/17 A3005 RMK A01 T02850168  RH  049%=      5-min Rain = 0
KNH1 251619Z 22012KT 29/17 A3004 RMK A01 T02880167  RH  048%=      5-min Rain = 0
KNH1 251620Z 23013KT 29/17 A3004 RMK A01 T02890168  RH  048%=      5-min Rain = 0
KNH1 251621Z 23013G18KT 29/17 A3004 RMK A01 T02870166  RH  048%=      5-min Rain = 0
KNH1 251622Z 22015KT 29/17 A3004 RMK A01 T02860167  RH  048%=      5-min Rain = 0
KNH1 251623Z 21009KT 29/17 A3005 RMK A01 T02880169  RH  048%=      5-min Rain = 0
KNH1 251624Z 23009KT 29/17 A3004 RMK A01 T02890168  RH  048%=      5-min Rain = 0
KNH1 251625Z 21009KT 29/17 A3004 RMK A01 T02880167  RH  048%=      5-min Rain = 0
KNH1 251626Z 21012KT 29/17 A3004 RMK A01 T02880167  RH  048%=      5-min Rain = 0
KNH1 251627Z 19009KT 29/17 A3004 RMK A01 T02870167  RH  048%=      5-min Rain = 0
KNH1 251628Z 22011KT 29/17 A3004 RMK A01 T02870168  RH  048%=      5-min Rain = 0
KNH1 251629Z 22010KT 29/17 A3004 RMK A01 T02890166  RH  047%=      5-min Rain = 0
KNH1 251630Z 23010KT 29/17 A3004 RMK A01 T02890167  RH  048%=      5-min Rain = 0
KNH1 251631Z 21011KT 29/17 A3004 RMK A01 T02900169  RH  048%=      5-min Rain = 0
KNH1 251632Z 21011KT 29/17 A3004 RMK A01 T02920169  RH  047%=      5-min Rain = 0
KNH1 251633Z 21009KT 29/17 A3004 RMK A01 T02910167  RH  047%=      5-min Rain = 0
KNH1 251634Z 20009G15KT 29/17 A3004 RMK A01 T02900167  RH  047%=      5-min Rain = 0
KNH1 251635Z 21013KT 29/17 A3004 RMK A01 T02920166  RH  046%=      5-min Rain = 0
KNH1 251636Z 22010KT 30/17 A3004 RMK A01 T02950167  RH  046%=      5-min Rain = 0
KNH1 251637Z 23011KT 30/17 A3004 RMK A01 T02960167  RH  046%=      5-min Rain = 0
KNH1 251638Z 22012KT 30/17 A3004 RMK A01 T02970168  RH  046%=      5-min Rain = 0
KNH1 251639Z 21011KT 30/17 A3004 RMK A01 T02950168  RH  046%=      5-min Rain = 0
KNH1 251640Z 21009KT 29/17 A3004 RMK A01 T02930169  RH  047%=      5-min Rain = 0
KNH1 251641Z 20012KT 29/17 A3004 RMK A01 T02930169  RH  047%=      5-min Rain = 0
KNH1 251642Z 21013KT 29/17 A3004 RMK A01 T02940167  RH  046%=      5-min Rain = 0
KNH1 251643Z 21011KT 30/17 A3004 RMK A01 T02950166  RH  046%=      5-min Rain = 0
KNH1 251644Z 21011KT 30/16 A3004 RMK A01 T02950164  RH  045%=      5-min Rain = 0
KNH1 251645Z 21012KT 30/16 A3004 RMK A01 T02950163  RH  045%=      5-min Rain = 0
KNH1 251646Z 21009KT 30/16 A3004 RMK A01 T02960164  RH  045%=      5-min Rain = 0
KNH1 251647Z 21011G17KT 30/16 A3004 RMK A01 T02960164  RH  045%=      5-min Rain = 0
KNH1 251648Z 22012KT 30/16 A3004 RMK A01 T02960164  RH  045%=      5-min Rain = 0
KNH1 251649Z 22012KT 30/16 A3004 RMK A01 T02980162  RH  044%=      5-min Rain = 0
KNH1 251650Z 23010KT 30/16 A3004 RMK A01 T02990163  RH  044%=      5-min Rain = 0
KNH1 251651Z 22011KT 30/16 A3004 RMK A01 T03020164  RH  043%=      5-min Rain = 0
KNH1 251652Z 22007G13KT 30/16 A3004 RMK A01 T03010161  RH  043%=      5-min Rain = 0
KNH1 251653Z 22011KT 30/16 A3004 RMK A01 T03000163  RH  044%=      5-min Rain = 0
KNH1 251654Z 22011KT 30/16 A3004 RMK A01 T03000162  RH  043%=      5-min Rain = 0
KNH1 251655Z 22012KT 30/16 A3004 RMK A01 T03020162  RH  043%=      5-min Rain = 0
KNH1 251656Z 22010KT 31/16 A3004 RMK A01 T03050161  RH  042%=      5-min Rain = 0
KNH1 251657Z 22009KT 31/16 A3004 RMK A01 T03050164  RH  043%=      5-min Rain = 0
KNH1 251658Z 21010KT 30/16 A3004 RMK A01 T03040164  RH  043%=      5-min Rain = 0
KNH1 251659Z 21012KT 31/17 A3004 RMK A01 T03060165  RH  043%=      5-min Rain = 0
KNH1 251700Z 21009KT 31/17 A3004 RMK A01 T03060165  RH  043%=      5-min Rain = 0
KNH1 251701Z 21008KT 31/17 A3004 RMK A01 T03060166  RH  043%=      5-min Rain = 0
KNH1 251702Z 22008KT 31/16 A3004 RMK A01 T03060164  RH  043%=      5-min Rain = 0
KNH1 251703Z 21007KT 30/17 A3004 RMK A01 T03030165  RH  044%=      5-min Rain = 0
KNH1 251704Z 19010KT 31/17 A3004 RMK A01 T03050165  RH  043%=      5-min Rain = 0
KNH1 251705Z 19008KT 31/16 A3004 RMK A01 T03090160  RH  041%=      5-min Rain = 0
KNH1 251706Z 22009KT 31/16 A3004 RMK A01 T03080164  RH  042%=      5-min Rain = 0
KNH1 251707Z 22010KT 31/16 A3004 RMK A01 T03080162  RH  041%=      5-min Rain = 0
KNH1 251708Z 22008KT 31/16 A3004 RMK A01 T03080164  RH  042%=      5-min Rain = 0
KNH1 251709Z 24008KT 31/17 A3004 RMK A01 T03080167  RH  043%=      5-min Rain = 0
KNH1 251710Z 23009KT 31/17 A3004 RMK A01 T03100165  RH  042%=      5-min Rain = 0
KNH1 251711Z 22009KT 31/17 A3004 RMK A01 T03100165  RH  042%=      5-min Rain = 0
KNH1 251712Z 20007KT 31/16 A3004 RMK A01 T03090164  RH  042%=      5-min Rain = 0
KNH1 251713Z 18008KT 31/17 A3004 RMK A01 T03100168  RH  043%=      5-min Rain = 0
KNH1 251714Z 17006KT 31/17 A3004 RMK A01 T03110170  RH  043%=      5-min Rain = 0
KNH1 251715Z 19004KT 31/17 A3004 RMK A01 T03120170  RH  043%=      5-min Rain = 0
KNH1 251716Z 20012KT 31/17 A3004 RMK A01 T03110169  RH  042%=      5-min Rain = 0
KNH1 251717Z 19010KT 31/17 A3004 RMK A01 T03110169  RH  043%=      5-min Rain = 0
KNH1 251718Z 20008KT 32/17 A3004 RMK A01 T03150168  RH  041%=      5-min Rain = 0
KNH1 251719Z 19008KT 31/17 A3004 RMK A01 T03110166  RH  042%=      5-min Rain = 0
KNH1 251720Z 19010KT 31/17 A3004 RMK A01 T03090167  RH  042%=      5-min Rain = 0
KNH1 251721Z 20009KT 31/16 A3004 RMK A01 T03110164  RH  041%=      5-min Rain = 0
KNH1 251722Z 21006KT 31/17 A3004 RMK A01 T03130167  RH  042%=      5-min Rain = 0
KNH1 251723Z 21005KT 31/17 A3003 RMK A01 T03120167  RH  042%=      5-min Rain = 0
KNH1 251724Z 17009KT 31/17 A3003 RMK A01 T03120166  RH  041%=      5-min Rain = 0
KNH1 251725Z 18007KT 31/16 A3003 RMK A01 T03140164  RH  040%=      5-min Rain = 0
KNH1 251726Z 20008KT 32/16 A3003 RMK A01 T03150161  RH  040%=      5-min Rain = 0
KNH1 251727Z 21012KT 32/16 A3003 RMK A01 T03160159  RH  039%=      5-min Rain = 0
KNH1 251728Z 20012KT 32/16 A3003 RMK A01 T03170159  RH  038%=      5-min Rain = 0
KNH1 251729Z 21010KT 32/16 A3003 RMK A01 T03180159  RH  038%=      5-min Rain = 0
KNH1 251730Z 21010KT 32/16 A3003 RMK A01 T03160157  RH  038%=      5-min Rain = 0
KNH1 251731Z 19008KT 31/16 A3003 RMK A01 T03140157  RH  039%=      5-min Rain = 0
KNH1 251732Z 19005KT 32/15 A3003 RMK A01 T03150153  RH  038%=      5-min Rain = 0
KNH1 251733Z 21008G13KT 31/16 A3003 RMK A01 T03140155  RH  038%=      5-min Rain = 0
KNH1 251734Z 21011KT 32/16 A3003 RMK A01 T03160156  RH  038%=      5-min Rain = 0
KNH1 251735Z 20010KT 32/15 A3003 RMK A01 T03190153  RH  037%=      5-min Rain = 0
KNH1 251736Z 19009KT 32/15 A3003 RMK A01 T03180154  RH  037%=      5-min Rain = 0
KNH1 251737Z 19011KT 32/16 A3003 RMK A01 T03180158  RH  038%=      5-min Rain = 0
KNH1 251738Z 18008KT 32/16 A3003 RMK A01 T03190157  RH  038%=      5-min Rain = 0
KNH1 251739Z 19006KT 32/16 A3003 RMK A01 T03180158  RH  038%=      5-min Rain = 0
KNH1 251740Z 21008KT 32/16 A3003 RMK A01 T03190160  RH  039%=      5-min Rain = 0
KNH1 251741Z 20009KT 32/16 A3003 RMK A01 T03240160  RH  037%=      5-min Rain = 0
KNH1 251742Z 19007KT 33/16 A3003 RMK A01 T03270157  RH  036%=      5-min Rain = 0
KNH1 251743Z 21010KT 32/16 A3003 RMK A01 T03230158  RH  037%=      5-min Rain = 0
KNH1 251744Z 19010KT 32/16 A3003 RMK A01 T03210160  RH  038%=      5-min Rain = 0
KNH1 251745Z 19009KT 32/16 A3003 RMK A01 T03200160  RH  038%=      5-min Rain = 0
KNH1 251746Z 20004KT 32/16 A3003 RMK A01 T03200160  RH  038%=      5-min Rain = 0
KNH1 251747Z 19007G13KT 32/16 A3003 RMK A01 T03200161  RH  038%=      5-min Rain = 0
KNH1 251748Z 19012KT 32/15 A3003 RMK A01 T03240151  RH  035%=      5-min Rain = 0
KNH1 251749Z 20012KT 33/15 A3003 RMK A01 T03280145  RH  033%=      5-min Rain = 0
KNH1 251750Z 20012KT 33/15 A3003 RMK A01 T03300147  RH  033%=      5-min Rain = 0
KNH1 251751Z 20009KT 33/15 A3003 RMK A01 T03290147  RH  033%=      5-min Rain = 0
KNH1 251752Z 20011KT 33/15 A3003 RMK A01 T03290154  RH  035%=      5-min Rain = 0
KNH1 251753Z 20010KT 33/16 A3003 RMK A01 T03270156  RH  036%=      5-min Rain = 0
KNH1 251754Z 22009KT 33/16 A3003 RMK A01 T03250155  RH  036%=      5-min Rain = 0
KNH1 251755Z 22009KT 32/15 A3003 RMK A01 T03240153  RH  036%=      5-min Rain = 0
KNH1 251756Z 23007KT 32/15 A3003 RMK A01 T03230146  RH  034%=      5-min Rain = 0
KNH1 251757Z 23008KT 32/15 A3002 RMK A01 T03230147  RH  034%=      5-min Rain = 0
KNH1 251758Z 21010KT 33/14 A3002 RMK A01 T03260140  RH  033%=      5-min Rain = 0
KNH1 251759Z 20010KT 33/13 A3003 RMK A01 T03270134  RH  031%=      5-min Rain = 0
KNH1 251800Z 20008KT 33/14 A3003 RMK A01 T03290136  RH  031%=      5-min Rain = 0
KNH1 251801Z 20008KT 33/14 A3003 RMK A01 T03300140  RH  032%=      5-min Rain = 0
KNH1 251802Z 19008KT 33/15 A3003 RMK A01 T03310145  RH  033%=      5-min Rain = 0
KNH1 251803Z 20010KT 33/14 A3003 RMK A01 T03340136  RH  030%=      5-min Rain = 0
KNH1 251804Z 19007KT 34/14 A3003 RMK A01 T03350135  RH  030%=      5-min Rain = 0
KNH1 251805Z 18005KT 33/14 A3002 RMK A01 T03330138  RH  031%=      5-min Rain = 0
KNH1 251806Z 18006KT 33/14 A3002 RMK A01 T03320136  RH  031%=      5-min Rain = 0
KNH1 251807Z 18008KT 33/14 A3002 RMK A01 T03320139  RH  031%=      5-min Rain = 0
KNH1 251808Z 18011KT 34/13 A3002 RMK A01 T03360129  RH  029%=      5-min Rain = 0
KNH1 251809Z 19008KT 34/13 A3002 RMK A01 T03390125  RH  027%=      5-min Rain = 0
KNH1 251810Z 18005KT 34/12 A3002 RMK A01 T03380117  RH  026%=      5-min Rain = 0
KNH1 251811Z 19009KT 34/12 A3002 RMK A01 T03350121  RH  027%=      5-min Rain = 0
KNH1 251812Z 19009KT 34/12 A3002 RMK A01 T03350116  RH  026%=      5-min Rain = 0
KNH1 251813Z 18009KT 34/12 A3002 RMK A01 T03370121  RH  027%=      5-min Rain = 0
KNH1 251814Z 19010KT 34/13 A3002 RMK A01 T03370129  RH  028%=      5-min Rain = 0
KNH1 251815Z 21009KT 34/13 A3002 RMK A01 T03370125  RH  028%=      5-min Rain = 0
KNH1 251816Z 21010KT 34/13 A3002 RMK A01 T03390129  RH  028%=      5-min Rain = 0
KNH1 251817Z 21006KT 34/13 A3002 RMK A01 T03370127  RH  028%=      5-min Rain = 0
KNH1 251818Z 19003KT 33/13 A3002 RMK A01 T03340127  RH  029%=      5-min Rain = 0
KNH1 251819Z 19006KT 33/12 A3002 RMK A01 T03330123  RH  028%=      5-min Rain = 0
KNH1 251820Z 21008KT 34/12 A3002 RMK A01 T03360119  RH  027%=      5-min Rain = 0
KNH1 251821Z 18009KT 34/12 A3002 RMK A01 T03380117  RH  026%=      5-min Rain = 0
KNH1 251822Z 18009KT 34/11 A3002 RMK A01 T03390114  RH  025%=      5-min Rain = 0
KNH1 251823Z 19011KT 34/12 A3002 RMK A01 T03420118  RH  026%=      5-min Rain = 0
KNH1 251824Z 19011G19KT 34/13 A3002 RMK A01 T03430128  RH  027%=      5-min Rain = 0
KNH1 251825Z 20009KT 35/13 A3002 RMK A01 T03450126  RH  027%=      5-min Rain = 0
KNH1 251826Z 23010KT 34/11 A3002 RMK A01 T03440113  RH  025%=      5-min Rain = 0
KNH1 251827Z 23008KT 34/10 A3002 RMK A01 T03420103  RH  023%=      5-min Rain = 0
KNH1 251828Z 20008G13KT 34/11 A3002 RMK A01 T03400106  RH  024%=      5-min Rain = 0
KNH1 251829Z 19012KT 34/11 A3002 RMK A01 T03440113  RH  025%=      5-min Rain = 0
KNH1 251830Z 21010KT 35/12 A3002 RMK A01 T03450120  RH  026%=      5-min Rain = 0
KNH1 251831Z 21011KT 34/12 A3002 RMK A01 T03440124  RH  026%=      5-min Rain = 0
KNH1 251832Z 19010KT 35/12 A3002 RMK A01 T03470119  RH  025%=      5-min Rain = 0
KNH1 251833Z 18008KT 34/12 A3002 RMK A01 T03440122  RH  026%=      5-min Rain = 0
KNH1 251834Z 17008KT 34/12 A3002 RMK A01 T03400120  RH  026%=      5-min Rain = 0
KNH1 251835Z 21009KT 34/11 A3002 RMK A01 T03390113  RH  025%=      5-min Rain = 0
KNH1 251836Z 19010KT 34/12 A3002 RMK A01 T03410119  RH  026%=      5-min Rain = 0
KNH1 251837Z 18008KT 34/12 A3002 RMK A01 T03440118  RH  025%=      5-min Rain = 0
KNH1 251838Z 20012KT 34/12 A3002 RMK A01 T03430116  RH  025%=      5-min Rain = 0
KNH1 251839Z 21012KT 35/09 A3002 RMK A01 T03450086  RH  020%=      5-min Rain = 0
KNH1 251840Z 19012KT 35/09 A3002 RMK A01 T03480090  RH  021%=      5-min Rain = 0
KNH1 251841Z 21013KT 35/10 A3002 RMK A01 T03480100  RH  022%=      5-min Rain = 0
KNH1 251842Z 21012KT 35/10 A3002 RMK A01 T03470103  RH  023%=      5-min Rain = 0
KNH1 251843Z 20014KT 35/10 A3002 RMK A01 T03490101  RH  022%=      5-min Rain = 0
KNH1 251844Z 20014KT 35/10 A3002 RMK A01 T03490098  RH  022%=      5-min Rain = 0
KNH1 251845Z 19012KT 35/10 A3002 RMK A01 T03500103  RH  022%=      5-min Rain = 0
KNH1 251846Z 19011KT 35/11 A3002 RMK A01 T03500108  RH  023%=      5-min Rain = 0
KNH1 251847Z 18012KT 35/12 A3002 RMK A01 T03480116  RH  025%=      5-min Rain = 0
KNH1 251848Z 18009KT 35/11 A3002 RMK A01 T03470113  RH  024%=      5-min Rain = 0
KNH1 251849Z 15008KT 35/11 A3002 RMK A01 T03480107  RH  023%=      5-min Rain = 0
KNH1 251850Z 16008KT 35/10 A3002 RMK A01 T03480100  RH  022%=      5-min Rain = 0
KNH1 251851Z 20013KT 35/10 A3002 RMK A01 T03480104  RH  023%=      5-min Rain = 0
KNH1 251852Z 20013KT 35/10 A3002 RMK A01 T03510104  RH  022%=      5-min Rain = 0
KNH1 251853Z 19010KT 35/11 A3002 RMK A01 T03520105  RH  022%=      5-min Rain = 0
KNH1 251854Z 18010KT 35/11 A3002 RMK A01 T03510105  RH  022%=      5-min Rain = 0
KNH1 251855Z 17011KT 35/10 A3002 RMK A01 T03500103  RH  022%=      5-min Rain = 0
KNH1 251856Z 17010KT 35/09 A3002 RMK A01 T03480093  RH  021%=      5-min Rain = 0
KNH1 251857Z 16009KT 35/10 A3002 RMK A01 T03470096  RH  022%=      5-min Rain = 0
KNH1 251858Z 16009KT 35/09 A3002 RMK A01 T03470090  RH  021%=      5-min Rain = 0
KNH1 251859Z 15010KT 35/09 A3002 RMK A01 T03460090  RH  021%=      5-min Rain = 0
KNH1 251900Z 16007KT 35/10 A3002 RMK A01 T03460098  RH  022%=      5-min Rain = 0
KNH1 251901Z 17009G16KT 35/10 A3002 RMK A01 T03450103  RH  023%=      5-min Rain = 0
KNH1 251902Z 18016KT 35/10 A3002 RMK A01 T03460098  RH  022%=      5-min Rain = 0
KNH1 251903Z 18017KT 35/09 A3002 RMK A01 T03480092  RH  021%=      5-min Rain = 0
KNH1 251904Z 17012KT 35/09 A3002 RMK A01 T03470087  RH  020%=      5-min Rain = 0
KNH1 251905Z 17010KT 35/09 A3002 RMK A01 T03450086  RH  020%=      5-min Rain = 0
KNH1 251906Z 16010KT 34/09 A3002 RMK A01 T03440094  RH  022%=      5-min Rain = 0
KNH1 251907Z 16014KT 34/09 A3002 RMK A01 T03440093  RH  022%=      5-min Rain = 0
KNH1 251908Z 17016KT 35/07 A3002 RMK A01 T03450071  RH  018%=      5-min Rain = 0
KNH1 251909Z 17013G18KT 34/07 A3002 RMK A01 T03440066  RH  018%=      5-min Rain = 0
KNH1 251910Z 18012KT 35/08 A3002 RMK A01 T03470080  RH  019%=      5-min Rain = 0
KNH1 251911Z 18011KT 35/08 A3002 RMK A01 T03520084  RH  019%=      5-min Rain = 0
KNH1 251912Z 17007KT 35/09 A3002 RMK A01 T03490085  RH  020%=      5-min Rain = 0
KNH1 251913Z 16010G17KT 35/08 A3002 RMK A01 T03490084  RH  020%=      5-min Rain = 0
KNH1 251914Z 16014KT 35/06 A3002 RMK A01 T03490062  RH  017%=      5-min Rain = 0
KNH1 251915Z 17014G20KT 35/07 A3002 RMK A01 T03480071  RH  018%=      5-min Rain = 0
KNH1 251916Z 17013KT 35/08 A3002 RMK A01 T03460079  RH  019%=      5-min Rain = 0
KNH1 251917Z 17014G19KT 34/08 A3002 RMK A01 T03430079  RH  020%=      5-min Rain = 0
KNH1 251918Z 16012KT 34/07 A3002 RMK A01 T03430073  RH  019%=      5-min Rain = 0
KNH1 251919Z 17013KT 34/08 A3002 RMK A01 T03430081  RH  020%=      5-min Rain = 0
KNH1 251920Z 19011KT 34/08 A3002 RMK A01 T03440083  RH  020%=      5-min Rain = 0
KNH1 251921Z 19015KT 35/09 A3002 RMK A01 T03460085  RH  020%=      5-min Rain = 0
KNH1 251922Z 18012KT 35/09 A3001 RMK A01 T03490091  RH  021%=      5-min Rain = 0
KNH1 251923Z 18013KT 35/10 A3001 RMK A01 T03470100  RH  022%=      5-min Rain = 0
KNH1 251924Z 18013KT 35/11 A3001 RMK A01 T03470109  RH  023%=      5-min Rain = 0
KNH1 251925Z 16013G19KT 34/11 A3001 RMK A01 T03440105  RH  023%=      5-min Rain = 0
KNH1 251926Z 15010KT 34/10 A3001 RMK A01 T03430101  RH  023%=      5-min Rain = 0
KNH1 251927Z 16013G18KT 35/10 A3001 RMK A01 T03450101  RH  023%=      5-min Rain = 0
KNH1 251928Z 17011G17KT 35/10 A3001 RMK A01 T03470098  RH  022%=      5-min Rain = 0
KNH1 251929Z 16011KT 35/10 A3001 RMK A01 T03480097  RH  022%=      5-min Rain = 0
KNH1 251930Z 17016G22KT 35/10 A3001 RMK A01 T03480100  RH  022%=      5-min Rain = 0
KNH1 251931Z 17013G19KT 35/11 A3001 RMK A01 T03450107  RH  024%=      5-min Rain = 0
KNH1 251932Z 18017G22KT 35/11 A3001 RMK A01 T03450111  RH  024%=      5-min Rain = 0
KNH1 251933Z 18015KT 35/11 A3001 RMK A01 T03460112  RH  024%=      5-min Rain = 0
KNH1 251934Z 18013KT 34/12 A3001 RMK A01 T03440115  RH  025%=      5-min Rain = 0
KNH1 251935Z 18013KT 35/12 A3001 RMK A01 T03450117  RH  025%=      5-min Rain = 0
KNH1 251936Z 18012KT 35/12 A3001 RMK A01 T03450118  RH  025%=      5-min Rain = 0
KNH1 251937Z 17012KT 35/12 A3001 RMK A01 T03460122  RH  026%=      5-min Rain = 0
KNH1 251938Z 16011KT 35/12 A3001 RMK A01 T03460123  RH  026%=      5-min Rain = 0
KNH1 251939Z 18012KT 34/13 A3001 RMK A01 T03430126  RH  027%=      5-min Rain = 0
KNH1 251940Z 17011G17KT 35/12 A3001 RMK A01 T03450124  RH  026%=      5-min Rain = 0
KNH1 251941Z 15007KT 35/13 A3001 RMK A01 T03450125  RH  026%=      5-min Rain = 0
KNH1 251942Z 17013KT 35/13 A3001 RMK A01 T03450130  RH  027%=      5-min Rain = 0
KNH1 251943Z 17013KT 35/13 A3001 RMK A01 T03450132  RH  028%=      5-min Rain = 0
KNH1 251944Z 17011KT 35/13 A3001 RMK A01 T03460133  RH  028%=      5-min Rain = 0
KNH1 251945Z 17009KT 35/13 A3001 RMK A01 T03470132  RH  027%=      5-min Rain = 0
KNH1 251946Z 18008KT 35/13 A3001 RMK A01 T03490129  RH  026%=      5-min Rain = 0
KNH1 251947Z 18014KT 35/13 A3001 RMK A01 T03490131  RH  027%=      5-min Rain = 0
KNH1 251948Z 18011KT 35/13 A3001 RMK A01 T03470127  RH  026%=      5-min Rain = 0
KNH1 251949Z 18010KT 35/12 A3001 RMK A01 T03450124  RH  026%=      5-min Rain = 0
KNH1 251950Z 17009G18KT 34/12 A3001 RMK A01 T03430124  RH  027%=      5-min Rain = 0
KNH1 251951Z 18009KT 34/13 A3001 RMK A01 T03430128  RH  027%=      5-min Rain = 0
KNH1 251952Z 18013G18KT 35/13 A3001 RMK A01 T03450131  RH  028%=      5-min Rain = 0
KNH1 251953Z 16010KT 35/13 A3001 RMK A01 T03490125  RH  026%=      5-min Rain = 0
KNH1 251954Z 17008G15KT 35/13 A3001 RMK A01 T03490126  RH  026%=      5-min Rain = 0
KNH1 251955Z 18013KT 35/13 A3001 RMK A01 T03480132  RH  027%=      5-min Rain = 0
KNH1 251956Z 18011G16KT 35/13 A3001 RMK A01 T03460129  RH  027%=      5-min Rain = 0
KNH1 251957Z 18011G17KT 35/14 A3001 RMK A01 T03460135  RH  028%=      5-min Rain = 0
KNH1 251958Z 17006KT 35/13 A3001 RMK A01 T03450133  RH  028%=      5-min Rain = 0
KNH1 251959Z 17008KT 34/14 A3001 RMK A01 T03430137  RH  029%=      5-min Rain = 0
KNH1 252000Z 18014KT 35/13 A30 RMK A01 T03460130  RH  027%=      5-min Rain = 0
KNH1 252001Z 19012G17KT 35/12 A3001 RMK A01 T03480121  RH  025%=      5-min Rain = 0
KNH1 252002Z 18010KT 35/13 A3001 RMK A01 T03480128  RH  027%=      5-min Rain = 0
KNH1 252003Z 17008KT 35/13 A30 RMK A01 T03500128  RH  026%=      5-min Rain = 0
KNH1 252004Z 18008KT 35/13 A30 RMK A01 T03490125  RH  026%=      5-min Rain = 0
KNH1 252005Z 16007KT 35/12 A30 RMK A01 T03480122  RH  025%=      5-min Rain = 0
KNH1 252006Z 16006KT 35/13 A30 RMK A01 T03490130  RH  027%=      5-min Rain = 0
KNH1 252007Z 16008KT 35/14 A30 RMK A01 T03470138  RH  028%=      5-min Rain = 0
KNH1 252008Z 16006KT 35/15 A30 RMK A01 T03470148  RH  030%=      5-min Rain = 0
KNH1 252009Z 15010G16KT 35/15 A30 RMK A01 T03480148  RH  030%=      5-min Rain = 0
KNH1 252010Z 13011G16KT 35/15 A30 RMK A01 T03480148  RH  030%=      5-min Rain = 0
KNH1 252011Z 15013G19KT 35/15 A30 RMK A01 T03490148  RH  030%=      5-min Rain = 0
KNH1 252012Z 17013KT 35/14 A30 RMK A01 T03490143  RH  029%=      5-min Rain = 0
KNH1 252013Z 17011KT 35/14 A30 RMK A01 T03450142  RH  030%=      5-min Rain = 0
KNH1 252014Z 17010KT 35/14 A30 RMK A01 T03450143  RH  030%=      5-min Rain = 0
KNH1 252015Z 15009KT 35/15 A30 RMK A01 T03470145  RH  030%=      5-min Rain = 0
KNH1 252016Z 14012G17KT 35/15 A30 RMK A01 T03490145  RH  029%=      5-min Rain = 0
KNH1 252017Z 15012KT 35/14 A30 RMK A01 T03530144  RH  029%=      5-min Rain = 0
KNH1 252018Z 16013KT 35/14 A30 RMK A01 T03510140  RH  028%=      5-min Rain = 0
KNH1 252019Z 17012KT 35/14 A30 RMK A01 T03450140  RH  029%=      5-min Rain = 0
KNH1 252020Z 16010G15KT 34/14 A30 RMK A01 T03440143  RH  030%=      5-min Rain = 0
KNH1 252021Z 16012KT 35/14 A30 RMK A01 T03470141  RH  029%=      5-min Rain = 0
KNH1 252022Z 16007KT 35/14 A30 RMK A01 T03480143  RH  029%=      5-min Rain = 0
KNH1 252023Z 20005KT 35/14 A2999 RMK A01 T03470141  RH  029%=      5-min Rain = 0
KNH1 252024Z 13006KT 35/15 A30 RMK A01 T03450146  RH  030%=      5-min Rain = 0
KNH1 252025Z 15008G13KT 35/15 A30 RMK A01 T03480147  RH  030%=      5-min Rain = 0
KNH1 252026Z 13013KT 35/15 A30 RMK A01 T03510147  RH  029%=      5-min Rain = 0
KNH1 252027Z 13010G16KT 35/15 A30 RMK A01 T03520145  RH  029%=      5-min Rain = 0
KNH1 252028Z 17013KT 35/14 A30 RMK A01 T03510140  RH  028%=      5-min Rain = 0
KNH1 252029Z 17011KT 35/14 A30 RMK A01 T03490136  RH  028%=      5-min Rain = 0
KNH1 252030Z 17011KT 35/13 A30 RMK A01 T03470134  RH  028%=      5-min Rain = 0
KNH1 252031Z 16010KT 35/14 A30 RMK A01 T03460136  RH  028%=      5-min Rain = 0
KNH1 252032Z 17012KT 35/14 A30 RMK A01 T03460138  RH  029%=      5-min Rain = 0
KNH1 252033Z 17011KT 35/14 A2999 RMK A01 T03460137  RH  029%=      5-min Rain = 0
KNH1 252034Z 16009G16KT 35/14 A2999 RMK A01 T03450138  RH  029%=      5-min Rain = 0
KNH1 252035Z 14009G15KT 34/14 A2999 RMK A01 T03440138  RH  029%=      5-min Rain = 0
KNH1 252036Z 16014KT 35/14 A2999 RMK A01 T03460141  RH  029%=      5-min Rain = 0
KNH1 252037Z 14011KT 35/14 A2999 RMK A01 T03460140  RH  029%=      5-min Rain = 0
KNH1 252038Z 16008KT 35/14 A2999 RMK A01 T03450140  RH  029%=      5-min Rain = 0
KNH1 252039Z 15007KT 34/14 A2999 RMK A01 T03440139  RH  029%=      5-min Rain = 0
KNH1 252040Z 15008G14KT 35/14 A2999 RMK A01 T03460144  RH  030%=      5-min Rain = 0
KNH1 252041Z 17013G19KT 35/14 A2999 RMK A01 T03500144  RH  029%=      5-min Rain = 0
KNH1 252042Z 17016G21KT 35/14 A2999 RMK A01 T03510141  RH  029%=      5-min Rain = 0
KNH1 252043Z 17009KT 35/14 A2999 RMK A01 T03450138  RH  029%=      5-min Rain = 0
KNH1 252044Z 15009G14KT 34/14 A2999 RMK A01 T03400137  RH  030%=      5-min Rain = 0
KNH1 252045Z 15013G19KT 34/14 A2999 RMK A01 T03390141  RH  030%=      5-min Rain = 0
KNH1 252046Z 15014G19KT 34/15 A2999 RMK A01 T03420146  RH  031%=      5-min Rain = 0
KNH1 252047Z 15011KT 34/15 A2999 RMK A01 T03430145  RH  031%=      5-min Rain = 0
KNH1 252048Z 14010G18KT 34/15 A2999 RMK A01 T03430147  RH  031%=      5-min Rain = 0
KNH1 252049Z 16011KT 35/15 A2999 RMK A01 T03470147  RH  030%=      5-min Rain = 0
KNH1 252050Z 16009KT 35/15 A2999 RMK A01 T03470148  RH  030%=      5-min Rain = 0
KNH1 252051Z 16009G15KT 35/15 A2999 RMK A01 T03460150  RH  031%=      5-min Rain = 0
KNH1 252052Z 14009G15KT 35/15 A2999 RMK A01 T03470149  RH  031%=      5-min Rain = 0
KNH1 252053Z 15009G14KT 35/15 A2999 RMK A01 T03520152  RH  030%=      5-min Rain = 0
KNH1 252054Z 17010KT 35/15 A2999 RMK A01 T03520153  RH  030%=      5-min Rain = 0
KNH1 252055Z 16011G17KT 35/15 A2999 RMK A01 T03480151  RH  031%=      5-min Rain = 0
KNH1 252056Z 18015KT 35/15 A2999 RMK A01 T03470145  RH  030%=      5-min Rain = 0
KNH1 252057Z 17012G17KT 35/14 A2999 RMK A01 T03470143  RH  030%=      5-min Rain = 0
KNH1 252058Z 16009G15KT 34/14 A2999 RMK A01 T03440143  RH  030%=      5-min Rain = 0
KNH1 252059Z 14014G22KT 34/15 A2999 RMK A01 T03440148  RH  031%=      5-min Rain = 0
KNH1 252100Z 16013G18KT 35/15 A2999 RMK A01 T03470150  RH  031%=      5-min Rain = 0
KNH1 252101Z 15012G18KT 35/15 A2999 RMK A01 T03460150  RH  031%=      5-min Rain = 0
KNH1 252102Z 15010KT 34/15 A2999 RMK A01 T03430150  RH  032%=      5-min Rain = 0
KNH1 252103Z 15010KT 34/15 A2999 RMK A01 T03430152  RH  032%=      5-min Rain = 0
KNH1 252104Z 15012KT 34/15 A2999 RMK A01 T03430150  RH  032%=      5-min Rain = 0
KNH1 252105Z 15011KT 34/15 A2999 RMK A01 T03440152  RH  032%=      5-min Rain = 0
KNH1 252106Z 15011G16KT 35/15 A2999 RMK A01 T03470151  RH  031%=      5-min Rain = 0
KNH1 252107Z 17012G18KT 35/15 A2999 RMK A01 T03490145  RH  030%=      5-min Rain = 0
KNH1 252108Z 16015G20KT 35/14 A2999 RMK A01 T03490135  RH  028%=      5-min Rain = 0
KNH1 252109Z 17014KT 35/13 A2999 RMK A01 T03460134  RH  028%=      5-min Rain = 0
KNH1 252110Z 16012KT 34/13 A2999 RMK A01 T03430129  RH  027%=      5-min Rain = 0
KNH1 252111Z 15007KT 34/14 A2999 RMK A01 T03420138  RH  029%=      5-min Rain = 0
KNH1 252112Z 16011G16KT 34/15 A2999 RMK A01 T03440150  RH  031%=      5-min Rain = 0
KNH1 252113Z 16011KT 34/14 A2999 RMK A01 T03440141  RH  030%=      5-min Rain = 0
KNH1 252114Z 16011G16KT 34/14 A2999 RMK A01 T03430140  RH  030%=      5-min Rain = 0
KNH1 252115Z 17008G13KT 34/15 A2999 RMK A01 T03430145  RH  030%=      5-min Rain = 0
KNH1 252116Z 18014KT 35/15 A2999 RMK A01 T03470145  RH  030%=      5-min Rain = 0
KNH1 252117Z 17013KT 35/14 A2999 RMK A01 T03450143  RH  030%=      5-min Rain = 0
KNH1 252118Z 17013KT 35/15 A2999 RMK A01 T03450148  RH  031%=      5-min Rain = 0
KNH1 252119Z 17015KT 35/15 A2999 RMK A01 T03470145  RH  030%=      5-min Rain = 0
KNH1 252120Z 17013KT 34/14 A2999 RMK A01 T03440140  RH  029%=      5-min Rain = 0
KNH1 252121Z 16008KT 34/13 A2999 RMK A01 T03400134  RH  029%=      5-min Rain = 0
KNH1 252122Z 14009KT 34/14 A2999 RMK A01 T03390139  RH  030%=      5-min Rain = 0
KNH1 252123Z 15011G16KT 34/14 A2999 RMK A01 T03410140  RH  030%=      5-min Rain = 0
KNH1 252124Z 15010G15KT 34/14 A2998 RMK A01 T03430141  RH  030%=      5-min Rain = 0
KNH1 252125Z 17014KT 34/14 A2998 RMK A01 T03440142  RH  030%=      5-min Rain = 0
KNH1 252126Z 17014KT 34/14 A2999 RMK A01 T03440140  RH  029%=      5-min Rain = 0
KNH1 252127Z 16012KT 34/14 A2999 RMK A01 T03420139  RH  029%=      5-min Rain = 0
KNH1 252128Z 16010G16KT 34/14 A2999 RMK A01 T03400138  RH  030%=      5-min Rain = 0
KNH1 252129Z 15011KT 34/14 A2999 RMK A01 T03400140  RH  030%=      5-min Rain = 0
KNH1 252130Z 16011KT 34/14 A2998 RMK A01 T03410140  RH  030%=      5-min Rain = 0
KNH1 252131Z 16010G16KT 34/14 A2998 RMK A01 T03410138  RH  029%=      5-min Rain = 0
KNH1 252132Z 15008KT 34/14 A2998 RMK A01 T03420138  RH  029%=      5-min Rain = 0
KNH1 252133Z 16013G20KT 34/14 A2998 RMK A01 T03440141  RH  030%=      5-min Rain = 0
KNH1 252134Z 17011KT 35/14 A2998 RMK A01 T03450139  RH  029%=      5-min Rain = 0
KNH1 252135Z 17016KT 35/14 A2998 RMK A01 T03490136  RH  028%=      5-min Rain = 0
KNH1 252136Z 17014G19KT 35/13 A2998 RMK A01 T03460132  RH  028%=      5-min Rain = 0
KNH1 252137Z 17015KT 34/13 A2998 RMK A01 T03430133  RH  028%=      5-min Rain = 0
KNH1 252138Z 16008G13KT 34/14 A2998 RMK A01 T03410135  RH  029%=      5-min Rain = 0
KNH1 252139Z 15012G17KT 34/14 A2998 RMK A01 T03430141  RH  030%=      5-min Rain = 0
KNH1 252140Z 14011G17KT 35/14 A2998 RMK A01 T03450139  RH  029%=      5-min Rain = 0
KNH1 252141Z 13010KT 35/14 A2998 RMK A01 T03450141  RH  029%=      5-min Rain = 0
KNH1 252142Z 16009KT 35/14 A2998 RMK A01 T03480142  RH  029%=      5-min Rain = 0
KNH1 252143Z 16010KT 35/14 A2998 RMK A01 T03510138  RH  028%=      5-min Rain = 0
KNH1 252144Z 15008G13KT 35/14 A2998 RMK A01 T03510139  RH  028%=      5-min Rain = 0
KNH1 252145Z 16010KT 35/14 A2998 RMK A01 T03510140  RH  028%=      5-min Rain = 0
KNH1 252146Z 17011KT 35/14 A2998 RMK A01 T03480135  RH  028%=      5-min Rain = 0
KNH1 252147Z 16009KT 35/13 A2998 RMK A01 T03450130  RH  027%=      5-min Rain = 0
KNH1 252148Z 18015KT 34/13 A2998 RMK A01 T03440133  RH  028%=      5-min Rain = 0
KNH1 252149Z 17013KT 34/13 A2998 RMK A01 T03430132  RH  028%=      5-min Rain = 0
KNH1 252150Z 18012KT 34/13 A2998 RMK A01 T03410133  RH  028%=      5-min Rain = 0
KNH1 252151Z 18011KT 34/14 A2998 RMK A01 T03420135  RH  029%=      5-min Rain = 0
KNH1 252152Z 14013G20KT 35/14 A2998 RMK A01 T03460137  RH  029%=      5-min Rain = 0
KNH1 252153Z 14014KT 35/13 A2998 RMK A01 T03480133  RH  027%=      5-min Rain = 0
KNH1 252154Z 14014KT 35/13 A2998 RMK A01 T03480130  RH  027%=      5-min Rain = 0
KNH1 252155Z 15010G15KT 35/13 A2998 RMK A01 T03470129  RH  027%=      5-min Rain = 0
KNH1 252156Z 17014KT 35/13 A2998 RMK A01 T03470127  RH  026%=      5-min Rain = 0
KNH1 252157Z 17012G17KT 35/13 A2998 RMK A01 T03460126  RH  026%=      5-min Rain = 0
KNH1 252158Z 14011KT 34/13 A2998 RMK A01 T03440128  RH  027%=      5-min Rain = 0
KNH1 252159Z 14009KT 34/13 A2998 RMK A01 T03420129  RH  028%=      5-min Rain = 0
KNH1 252200Z 16009G15KT 34/13 A2998 RMK A01 T03430132  RH  028%=      5-min Rain = 0
KNH1 252201Z 17011G16KT 35/13 A2998 RMK A01 T03450127  RH  027%=      5-min Rain = 0
KNH1 252202Z 18015KT 35/12 A2997 RMK A01 T03450124  RH  026%=      5-min Rain = 0
KNH1 252203Z 16013KT 34/12 A2997 RMK A01 T03440123  RH  026%=      5-min Rain = 0
KNH1 252204Z 15012KT 34/12 A2997 RMK A01 T03440121  RH  026%=      5-min Rain = 0
KNH1 252205Z 16010KT 34/12 A2997 RMK A01 T03440121  RH  026%=      5-min Rain = 0
KNH1 252206Z 16007KT 34/12 A2997 RMK A01 T03430124  RH  027%=      5-min Rain = 0
KNH1 252207Z 15007KT 34/13 A2997 RMK A01 T03440125  RH  027%=      5-min Rain = 0
KNH1 252208Z 16010KT 35/12 A2997 RMK A01 T03470123  RH  026%=      5-min Rain = 0
KNH1 252209Z 17011KT 35/12 A2997 RMK A01 T03480124  RH  026%=      5-min Rain = 0
KNH1 252210Z 16012KT 35/13 A2997 RMK A01 T03480125  RH  026%=      5-min Rain = 0
KNH1 252211Z 17014KT 35/12 A2997 RMK A01 T03470121  RH  026%=      5-min Rain = 0
KNH1 252212Z 16014KT 34/12 A2997 RMK A01 T03440122  RH  026%=      5-min Rain = 0
KNH1 252213Z 15013G20KT 34/13 A2997 RMK A01 T03420130  RH  028%=      5-min Rain = 0
KNH1 252214Z 16009KT 34/13 A2997 RMK A01 T03420131  RH  028%=      5-min Rain = 0
KNH1 252215Z 14008KT 34/13 A2997 RMK A01 T03410132  RH  028%=      5-min Rain = 0
KNH1 252216Z 14012KT 34/13 A2997 RMK A01 T03420130  RH  028%=      5-min Rain = 0
KNH1 252217Z 15011KT 35/13 A2997 RMK A01 T03450129  RH  027%=      5-min Rain = 0
KNH1 252218Z 17010KT 35/13 A2997 RMK A01 T03460131  RH  027%=      5-min Rain = 0
KNH1 252219Z 17011KT 35/13 A2997 RMK A01 T03480128  RH  027%=      5-min Rain = 0
KNH1 252220Z 15010G15KT 35/13 A2996 RMK A01 T03480131  RH  027%=      5-min Rain = 0
KNH1 252221Z 15014KT 35/14 A2997 RMK A01 T03490136  RH  028%=      5-min Rain = 0
KNH1 252222Z 16013KT 35/14 A2997 RMK A01 T03490135  RH  028%=      5-min Rain = 0
KNH1 252223Z 16010KT 35/13 A2997 RMK A01 T03450134  RH  028%=      5-min Rain = 0
KNH1 252224Z 15007KT 34/14 A2996 RMK A01 T03410136  RH  029%=      5-min Rain = 0
KNH1 252225Z 14012KT 34/14 A2996 RMK A01 T03430137  RH  029%=      5-min Rain = 0
KNH1 252226Z 16008KT 34/14 A2996 RMK A01 T03440138  RH  029%=      5-min Rain = 0
KNH1 252227Z 15012KT 35/14 A2996 RMK A01 T03450138  RH  029%=      5-min Rain = 0
KNH1 252228Z 14013G20KT 35/14 A2996 RMK A01 T03470140  RH  029%=      5-min Rain = 0
KNH1 252229Z 14016G22KT 35/14 A2996 RMK A01 T03470139  RH  029%=      5-min Rain = 0
KNH1 252230Z 14016KT 35/14 A2996 RMK A01 T03480140  RH  029%=      5-min Rain = 0
KNH1 252231Z 14013G18KT 35/14 A2996 RMK A01 T03460139  RH  029%=      5-min Rain = 0
KNH1 252232Z 16010G15KT 35/14 A2996 RMK A01 T03450140  RH  029%=      5-min Rain = 0
KNH1 252233Z 16010KT 35/14 A2996 RMK A01 T03460141  RH  029%=      5-min Rain = 0
KNH1 252234Z 17009KT 35/14 A2996 RMK A01 T03470138  RH  028%=      5-min Rain = 0
KNH1 252235Z 16011KT 35/13 A2996 RMK A01 T03480134  RH  028%=      5-min Rain = 0
KNH1 252236Z 16012KT 35/14 A2996 RMK A01 T03470137  RH  028%=      5-min Rain = 0
KNH1 252237Z 16014G20KT 35/14 A2996 RMK A01 T03470136  RH  028%=      5-min Rain = 0
KNH1 252238Z 16013G20KT 35/14 A2996 RMK A01 T03460137  RH  028%=      5-min Rain = 0
KNH1 252239Z 16013G20KT 35/14 A2996 RMK A01 T03450137  RH  029%=      5-min Rain = 0
KNH1 252240Z 16015KT 34/14 A2996 RMK A01 T03440138  RH  029%=      5-min Rain = 0
KNH1 252241Z 15012KT 34/14 A2996 RMK A01 T03430138  RH  029%=      5-min Rain = 0
KNH1 252242Z 15013KT 34/14 A2996 RMK A01 T03420138  RH  029%=      5-min Rain = 0
KNH1 252243Z 16013G20KT 34/14 A2996 RMK A01 T03410144  RH  031%=      5-min Rain = 0
KNH1 252244Z 14014KT 34/15 A2996 RMK A01 T03400148  RH  032%=      5-min Rain = 0
KNH1 252245Z 14015G22KT 34/15 A2996 RMK A01 T03420150  RH  032%=      5-min Rain = 0
KNH1 252246Z 14014G20KT 34/15 A2996 RMK A01 T03420146  RH  031%=      5-min Rain = 0
KNH1 252247Z 15014G20KT 34/15 A2996 RMK A01 T03410148  RH  031%=      5-min Rain = 0
KNH1 252248Z 14014G20KT 34/15 A2996 RMK A01 T03420145  RH  031%=      5-min Rain = 0
KNH1 252249Z 14017KT 34/15 A2996 RMK A01 T03430147  RH  031%=      5-min Rain = 0
KNH1 252250Z 14012KT 34/15 A2996 RMK A01 T03430153  RH  032%=      5-min Rain = 0
KNH1 252251Z 14019G25KT 34/16 A2996 RMK A01 T03420157  RH  033%=      5-min Rain = 0
KNH1 252252Z 14015G20KT 34/16 A2996 RMK A01 T03410157  RH  033%=      5-min Rain = 0
KNH1 252253Z 14011G17KT 34/16 A2996 RMK A01 T03410158  RH  034%=      5-min Rain = 0
KNH1 252254Z 14011G16KT 34/16 A2996 RMK A01 T03410158  RH  033%=      5-min Rain = 0
KNH1 252255Z 16012G17KT 34/16 A2996 RMK A01 T03410155  RH  033%=      5-min Rain = 0
KNH1 252256Z 16014G19KT 34/15 A2996 RMK A01 T03420147  RH  031%=      5-min Rain = 0
KNH1 252257Z 16013G19KT 34/15 A2996 RMK A01 T03410146  RH  031%=      5-min Rain = 0
KNH1 252258Z 14012G22KT 34/15 A2996 RMK A01 T03400149  RH  032%=      5-min Rain = 0
KNH1 252259Z 16012G23KT 34/15 A2996 RMK A01 T03420150  RH  032%=      5-min Rain = 0
KNH1 252300Z 14014KT 34/15 A2996 RMK A01 T03430151  RH  032%=      5-min Rain = 0
KNH1 252301Z 15016G21KT 34/15 A2996 RMK A01 T03420151  RH  032%=      5-min Rain = 0
KNH1 252302Z 16013G19KT 34/15 A2996 RMK A01 T03410151  RH  032%=      5-min Rain = 0
KNH1 252303Z 16014G20KT 34/15 A2996 RMK A01 T03400151  RH  032%=      5-min Rain = 0
KNH1 252304Z 15011KT 34/15 A2996 RMK A01 T03390154  RH  033%=      5-min Rain = 0
KNH1 252305Z 14011KT 34/16 A2996 RMK A01 T03380155  RH  033%=      5-min Rain = 0
KNH1 252306Z 15013G20KT 34/16 A2996 RMK A01 T03390157  RH  034%=      5-min Rain = 0
KNH1 252307Z 14012KT 34/16 A2996 RMK A01 T03380156  RH  034%=      5-min Rain = 0
KNH1 252308Z 14013G19KT 34/16 A2996 RMK A01 T03360157  RH  034%=      5-min Rain = 0
KNH1 252309Z 15015G20KT 34/16 A2996 RMK A01 T03360159  RH  035%=      5-min Rain = 0
KNH1 252310Z 14016G21KT 34/16 A2996 RMK A01 T03350158  RH  035%=      5-min Rain = 0
KNH1 252311Z 14019KT 33/16 A2996 RMK A01 T03340158  RH  035%=      5-min Rain = 0
KNH1 252312Z 15013G18KT 33/16 A2996 RMK A01 T03340160  RH  035%=      5-min Rain = 0
KNH1 252313Z 14012G19KT 33/16 A2996 RMK A01 T03340161  RH  035%=      5-min Rain = 0
KNH1 252314Z 14016G23KT 34/16 A2996 RMK A01 T03360159  RH  035%=      5-min Rain = 0
KNH1 252315Z 14015KT 34/16 A2996 RMK A01 T03350160  RH  035%=      5-min Rain = 0
KNH1 252316Z 13011KT 34/16 A2996 RMK A01 T03350160  RH  035%=      5-min Rain = 0
KNH1 252317Z 13011G16KT 34/16 A2996 RMK A01 T03360160  RH  035%=      5-min Rain = 0
KNH1 252318Z 12012G18KT 34/16 A2996 RMK A01 T03380158  RH  034%=      5-min Rain = 0
KNH1 252319Z 14012KT 34/16 A2996 RMK A01 T03380158  RH  034%=      5-min Rain = 0
KNH1 252320Z 15015G22KT 34/16 A2996 RMK A01 T03390160  RH  034%=      5-min Rain = 0
KNH1 252321Z 15014G19KT 34/16 A2996 RMK A01 T03370159  RH  035%=      5-min Rain = 0
KNH1 252322Z 14014KT 33/16 A2996 RMK A01 T03340159  RH  035%=      5-min Rain = 0
KNH1 252323Z 14012G18KT 33/16 A2995 RMK A01 T03330159  RH  035%=      5-min Rain = 0
KNH1 252324Z 14014G20KT 33/16 A2995 RMK A01 T03330160  RH  036%=      5-min Rain = 0
KNH1 252325Z 14016KT 33/16 A2995 RMK A01 T03330159  RH  035%=      5-min Rain = 0
KNH1 252326Z 15012G17KT 33/16 A2995 RMK A01 T03330158  RH  035%=      5-min Rain = 0
KNH1 252327Z 16016G21KT 33/16 A2995 RMK A01 T03330157  RH  035%=      5-min Rain = 0
KNH1 252328Z 16014G20KT 33/16 A2995 RMK A01 T03330159  RH  035%=      5-min Rain = 0
KNH1 252329Z 15015KT 33/16 A2995 RMK A01 T03310160  RH  036%=      5-min Rain = 0
KNH1 252330Z 14015G20KT 33/16 A2995 RMK A01 T03310161  RH  036%=      5-min Rain = 0
KNH1 252331Z 16011G18KT 33/16 A2995 RMK A01 T03310162  RH  036%=      5-min Rain = 0
KNH1 252332Z 14012G17KT 33/16 A2995 RMK A01 T03310161  RH  036%=      5-min Rain = 0
KNH1 252333Z 14016G21KT 33/16 A2995 RMK A01 T03310161  RH  036%=      5-min Rain = 0
KNH1 252334Z 14011G16KT 33/16 A2995 RMK A01 T03310161  RH  036%=      5-min Rain = 0
KNH1 252335Z 15012G17KT 33/16 A2995 RMK A01 T03310161  RH  036%=      5-min Rain = 0
KNH1 252336Z 15016G23KT 33/16 A2995 RMK A01 T03320160  RH  036%=      5-min Rain = 0
KNH1 252337Z 16016G21KT 33/16 A2995 RMK A01 T03310160  RH  036%=      5-min Rain = 0
KNH1 252338Z 16016KT 33/16 A2995 RMK A01 T03290158  RH  036%=      5-min Rain = 0
KNH1 252339Z 14014G21KT 33/16 A2995 RMK A01 T03260159  RH  037%=      5-min Rain = 0
KNH1 252340Z 15015KT 33/16 A2995 RMK A01 T03260159  RH  037%=      5-min Rain = 0
KNH1 252341Z 14012G18KT 33/16 A2995 RMK A01 T03270160  RH  037%=      5-min Rain = 0
KNH1 252342Z 14013G22KT 33/16 A2995 RMK A01 T03290162  RH  037%=      5-min Rain = 0
KNH1 252343Z 15016G22KT 33/16 A2995 RMK A01 T03300160  RH  036%=      5-min Rain = 0
KNH1 252344Z 15012G18KT 33/16 A2995 RMK A01 T03290160  RH  036%=      5-min Rain = 0
KNH1 252345Z 15015KT 33/16 A2995 RMK A01 T03290160  RH  036%=      5-min Rain = 0
KNH1 252346Z 14016KT 33/16 A2995 RMK A01 T03280160  RH  036%=      5-min Rain = 0
KNH1 252347Z 14016KT 33/16 A2995 RMK A01 T03280161  RH  037%=      5-min Rain = 0
KNH1 252348Z 14017G22KT 33/16 A2995 RMK A01 T03280160  RH  037%=      5-min Rain = 0
KNH1 252349Z 14013G22KT 33/16 A2995 RMK A01 T03280159  RH  036%=      5-min Rain = 0
KNH1 252350Z 15017KT 33/16 A2995 RMK A01 T03280159  RH  036%=      5-min Rain = 0
KNH1 252351Z 15011KT 33/16 A2995 RMK A01 T03260160  RH  037%=      5-min Rain = 0
KNH1 252352Z 14015G20KT 33/16 A2995 RMK A01 T03260161  RH  037%=      5-min Rain = 0
KNH1 252353Z 14019KT 33/16 A2995 RMK A01 T03270161  RH  037%=      5-min Rain = 0
KNH1 252354Z 14018G24KT 33/16 A2995 RMK A01 T03260161  RH  037%=      5-min Rain = 0
KNH1 252355Z 15011G18KT 33/16 A2995 RMK A01 T03250162  RH  038%=      5-min Rain = 0
KNH1 252356Z 14009G14KT 33/16 A2995 RMK A01 T03250163  RH  038%=      5-min Rain = 0
KNH1 252357Z 14013G21KT 33/17 A2995 RMK A01 T03270165  RH  038%=      5-min Rain = 0
KNH1 252358Z 14015KT 33/16 A2995 RMK A01 T03280164  RH  037%=      5-min Rain = 0
KNH1 252359Z 15013G19KT 33/17 A2995 RMK A01 T03270165  RH  038%=      5-min Rain = 0
KNH1 260000Z 14010G20KT 33/17 A2995 RMK A01 T03270165  RH  038%=      5-min Rain = 0
KNH1 260001Z 14013G20KT 33/16 A2995 RMK A01 T03270164  RH  038%=      5-min Rain = 0
KNH1 260002Z 14016G21KT 33/16 A2995 RMK A01 T03270163  RH  037%=      5-min Rain = 0
KNH1 260003Z 14012G18KT 33/16 A2995 RMK A01 T03260161  RH  037%=      5-min Rain = 0
KNH1 260004Z 13013KT 33/16 A2995 RMK A01 T03250162  RH  038%=      5-min Rain = 0
KNH1 260005Z 13014KT 33/16 A2995 RMK A01 T03250162  RH  038%=      5-min Rain = 0
KNH1 260006Z 14014G20KT 33/16 A2995 RMK A01 T03250164  RH  038%=      5-min Rain = 0
KNH1 260007Z 13018G24KT 32/16 A2995 RMK A01 T03240164  RH  038%=      5-min Rain = 0
KNH1 260008Z 15015G24KT 32/16 A2995 RMK A01 T03240162  RH  038%=      5-min Rain = 0
KNH1 260009Z 15013G19KT 32/16 A2994 RMK A01 T03230160  RH  038%=      5-min Rain = 0
KNH1 260010Z 15012G18KT 32/16 A2994 RMK A01 T03230160  RH  038%=      5-min Rain = 0
KNH1 260011Z 14014G21KT 32/16 A2994 RMK A01 T03230160  RH  038%=      5-min Rain = 0
KNH1 260012Z 14017KT 32/16 A2994 RMK A01 T03230160  RH  038%=      5-min Rain = 0
KNH1 260013Z 14014G20KT 32/16 A2994 RMK A01 T03220160  RH  038%=      5-min Rain = 0
KNH1 260014Z 15012G18KT 32/16 A2994 RMK A01 T03210160  RH  038%=      5-min Rain = 0
KNH1 260015Z 15011G19KT 32/16 A2994 RMK A01 T03220160  RH  038%=      5-min Rain = 0
KNH1 260016Z 16011G19KT 32/16 A2994 RMK A01 T03230161  RH  038%=      5-min Rain = 0
KNH1 260017Z 16014KT 32/16 A2994 RMK A01 T03240158  RH  037%=      5-min Rain = 0
KNH1 260018Z 16015KT 32/16 A2994 RMK A01 T03230157  RH  037%=      5-min Rain = 0
KNH1 260019Z 15010KT 32/16 A2994 RMK A01 T03220159  RH  037%=      5-min Rain = 0
KNH1 260020Z 15014G22KT 32/16 A2995 RMK A01 T03220160  RH  038%=      5-min Rain = 0
KNH1 260021Z 14013G18KT 32/16 A2994 RMK A01 T03230158  RH  037%=      5-min Rain = 0
KNH1 260022Z 14014G20KT 32/16 A2994 RMK A01 T03220157  RH  037%=      5-min Rain = 0
KNH1 260023Z 14014G24KT 32/16 A2994 RMK A01 T03230158  RH  037%=      5-min Rain = 0
KNH1 260024Z 15013G21KT 32/16 A2994 RMK A01 T03220157  RH  037%=      5-min Rain = 0
KNH1 260025Z 15014G20KT 32/16 A2994 RMK A01 T03220158  RH  037%=      5-min Rain = 0
KNH1 260026Z 16013G18KT 32/16 A2994 RMK A01 T03210158  RH  037%=      5-min Rain = 0
KNH1 260027Z 15013G18KT 32/16 A2994 RMK A01 T03210157  RH  037%=      5-min Rain = 0
KNH1 260028Z 16018KT 32/16 A2994 RMK A01 T03210158  RH  037%=      5-min Rain = 0
KNH1 260029Z 16015G23KT 32/16 A2994 RMK A01 T03200157  RH  037%=      5-min Rain = 0
KNH1 260030Z 16013G22KT 32/16 A2995 RMK A01 T03200157  RH  038%=      5-min Rain = 0
KNH1 260031Z 15013G20KT 32/16 A2995 RMK A01 T03200158  RH  038%=      5-min Rain = 0
KNH1 260032Z 14009KT 32/16 A2995 RMK A01 T03200159  RH  038%=      5-min Rain = 0
KNH1 260033Z 16016G23KT 32/16 A2995 RMK A01 T03200159  RH  038%=      5-min Rain = 0
KNH1 260034Z 15015KT 32/16 A2995 RMK A01 T03200158  RH  038%=      5-min Rain = 0
KNH1 260035Z 15015G20KT 32/16 A2995 RMK A01 T03190159  RH  038%=      5-min Rain = 0
KNH1 260036Z 15011G16KT 32/16 A2995 RMK A01 T03180159  RH  038%=      5-min Rain = 0
KNH1 260037Z 16013G19KT 32/16 A2995 RMK A01 T03180160  RH  039%=      5-min Rain = 0
KNH1 260038Z 16016KT 32/16 A2995 RMK A01 T03180160  RH  039%=      5-min Rain = 0
KNH1 260039Z 15015G20KT 32/16 A2995 RMK A01 T03180161  RH  039%=      5-min Rain = 0
KNH1 260040Z 15016G22KT 32/16 A2995 RMK A01 T03170160  RH  039%=      5-min Rain = 0
KNH1 260041Z 15014KT 32/16 A2995 RMK A01 T03170160  RH  039%=      5-min Rain = 0
KNH1 260042Z 16013KT 32/16 A2995 RMK A01 T03170160  RH  039%=      5-min Rain = 0
KNH1 260043Z 15013G19KT 32/16 A2995 RMK A01 T03180160  RH  039%=      5-min Rain = 0
KNH1 260044Z 15013G19KT 32/16 A2995 RMK A01 T03180160  RH  039%=      5-min Rain = 0
KNH1 260045Z 15015G22KT 32/16 A2995 RMK A01 T03180159  RH  038%=      5-min Rain = 0
KNH1 260046Z 15013KT 32/16 A2996 RMK A01 T03170159  RH  039%=      5-min Rain = 0
KNH1 260047Z 15011G17KT 32/16 A2996 RMK A01 T03170160  RH  039%=      5-min Rain = 0
KNH1 260048Z 15011G18KT 32/16 A2996 RMK A01 T03160160  RH  039%=      5-min Rain = 0
KNH1 260049Z 15016G21KT 32/16 A2996 RMK A01 T03160160  RH  039%=      5-min Rain = 0
KNH1 260050Z 15013G19KT 32/16 A2996 RMK A01 T03160160  RH  039%=      5-min Rain = 0
KNH1 260051Z 15014G20KT 32/16 A2996 RMK A01 T03150160  RH  039%=      5-min Rain = 0
KNH1 260052Z 15014G20KT 32/16 A2996 RMK A01 T03150161  RH  040%=      5-min Rain = 0
KNH1 260053Z 15011G17KT 31/16 A2996 RMK A01 T03140162  RH  040%=      5-min Rain = 0
KNH1 260054Z 16014G22KT 31/16 A2996 RMK A01 T03140162  RH  040%=      5-min Rain = 0
KNH1 260055Z 15013G19KT 32/16 A2996 RMK A01 T03150161  RH  040%=      5-min Rain = 0
KNH1 260056Z 15013G19KT 31/16 A2996 RMK A01 T03140160  RH  040%=      5-min Rain = 0
KNH1 260057Z 14013G18KT 31/16 A2996 RMK A01 T03130160  RH  040%=      5-min Rain = 0
KNH1 260058Z 14014KT 31/16 A2996 RMK A01 T03130161  RH  040%=      5-min Rain = 0
KNH1 260059Z 15015G24KT 31/16 A2996 RMK A01 T03130161  RH  040%=      5-min Rain = 0
KNH1 260100Z 15014G21KT 31/16 A2996 RMK A01 T03130160  RH  040%=      5-min Rain = 0
KNH1 260101Z 14016G21KT 31/16 A2996 RMK A01 T03120160  RH  040%=      5-min Rain = 0
KNH1 260102Z 14014G19KT 31/16 A2996 RMK A01 T03120160  RH  040%=      5-min Rain = 0
KNH1 260103Z 14016G21KT 31/16 A2996 RMK A01 T03110159  RH  040%=      5-min Rain = 0
KNH1 260104Z 15015G21KT 31/16 A2996 RMK A01 T03110159  RH  040%=      5-min Rain = 0
KNH1 260105Z 15015G21KT 31/16 A2996 RMK A01 T03110160  RH  040%=      5-min Rain = 0
KNH1 260106Z 15015G20KT 31/16 A2996 RMK A01 T03110159  RH  040%=      5-min Rain = 0
KNH1 260107Z 15015G20KT 31/16 A2996 RMK A01 T03100159  RH  040%=      5-min Rain = 0
KNH1 260108Z 14015KT 31/16 A2997 RMK A01 T03100160  RH  040%=      5-min Rain = 0
KNH1 260109Z 14017G23KT 31/16 A2997 RMK A01 T03100160  RH  041%=      5-min Rain = 0
KNH1 260110Z 14015G20KT 31/16 A2997 RMK A01 T03090161  RH  041%=      5-min Rain = 0
KNH1 260111Z 15015G22KT 31/16 A2997 RMK A01 T03090161  RH  041%=      5-min Rain = 0
KNH1 260112Z 14015KT 31/16 A2997 RMK A01 T03080161  RH  041%=      5-min Rain = 0
KNH1 260113Z 15014G20KT 31/16 A2997 RMK A01 T03080162  RH  041%=      5-min Rain = 0
KNH1 260114Z 14015KT 31/16 A2997 RMK A01 T03070162  RH  041%=      5-min Rain = 0
KNH1 260115Z 14015G22KT 31/16 A2997 RMK A01 T03070162  RH  042%=      5-min Rain = 0
KNH1 260116Z 14014G23KT 31/16 A2997 RMK A01 T03060162  RH  042%=      5-min Rain = 0
KNH1 260117Z 14012KT 31/16 A2997 RMK A01 T03050163  RH  042%=      5-min Rain = 0
KNH1 260118Z 14016G21KT 31/16 A2997 RMK A01 T03050163  RH  042%=      5-min Rain = 0
KNH1 260119Z 14013G19KT 31/16 A2997 RMK A01 T03050163  RH  043%=      5-min Rain = 0
KNH1 260120Z 13014G20KT 30/17 A2997 RMK A01 T03040165  RH  043%=      5-min Rain = 0
KNH1 260121Z 14016G21KT 30/17 A2998 RMK A01 T03030166  RH  044%=      5-min Rain = 0
KNH1 260122Z 14015G20KT 30/17 A2998 RMK A01 T03030165  RH  044%=      5-min Rain = 0
KNH1 260123Z 14015G21KT 30/17 A2998 RMK A01 T03020166  RH  044%=      5-min Rain = 0
KNH1 260124Z 13014G20KT 30/17 A2998 RMK A01 T03010165  RH  044%=      5-min Rain = 0
KNH1 260125Z 13013G18KT 30/17 A2998 RMK A01 T03010165  RH  044%=      5-min Rain = 0
KNH1 260126Z 14015G20KT 30/17 A2998 RMK A01 T03000165  RH  044%=      5-min Rain = 0
KNH1 260127Z 14012KT 30/17 A2998 RMK A01 T03000165  RH  044%=      5-min Rain = 0
KNH1 260128Z 14013KT 30/17 A2998 RMK A01 T03000165  RH  044%=      5-min Rain = 0
KNH1 260129Z 13011KT 30/17 A2998 RMK A01 T02990165  RH  044%=      5-min Rain = 0
KNH1 260130Z 13014KT 30/17 A2998 RMK A01 T02980165  RH  045%=      5-min Rain = 0
KNH1 260131Z 14013G18KT 30/16 A2998 RMK A01 T02970164  RH  045%=      5-min Rain = 0
KNH1 260132Z 13016G22KT 30/16 A2998 RMK A01 T02970164  RH  045%=      5-min Rain = 0
KNH1 260133Z 13013G20KT 30/16 A2998 RMK A01 T02950163  RH  045%=      5-min Rain = 0
KNH1 260134Z 13013G19KT 30/16 A2998 RMK A01 T02950163  RH  045%=      5-min Rain = 0
KNH1 260135Z 13015KT 30/16 A2998 RMK A01 T02950163  RH  045%=      5-min Rain = 0
KNH1 260136Z 13014KT 29/16 A2998 RMK A01 T02940163  RH  045%=      5-min Rain = 0
KNH1 260137Z 13015KT 29/16 A2998 RMK A01 T02930163  RH  045%=      5-min Rain = 0
KNH1 260138Z 13014G20KT 29/16 A2998 RMK A01 T02930163  RH  045%=      5-min Rain = 0
KNH1 260139Z 14015G20KT 29/16 A2998 RMK A01 T02920163  RH  045%=      5-min Rain = 0
KNH1 260140Z 14013KT 29/16 A2998 RMK A01 T02920162  RH  046%=      5-min Rain = 0
KNH1 260141Z 13013G19KT 29/16 A2999 RMK A01 T02910163  RH  046%=      5-min Rain = 0
KNH1 260142Z 13013G19KT 29/16 A2999 RMK A01 T02910163  RH  046%=      5-min Rain = 0
KNH1 260143Z 13014G19KT 29/16 A2999 RMK A01 T02900163  RH  046%=      5-min Rain = 0
KNH1 260144Z 14016KT 29/16 A2999 RMK A01 T02900163  RH  046%=      5-min Rain = 0
KNH1 260145Z 13013KT 29/16 A2999 RMK A01 T02890163  RH  046%=      5-min Rain = 0
KNH1 260146Z 13013KT 29/16 A2999 RMK A01 T02890162  RH  046%=      5-min Rain = 0
KNH1 260147Z 13014G22KT 29/16 A2999 RMK A01 T02880162  RH  046%=      5-min Rain = 0
KNH1 260148Z 13012KT 29/16 A2999 RMK A01 T02880162  RH  046%=      5-min Rain = 0
KNH1 260149Z 13012G17KT 29/16 A2999 RMK A01 T02870162  RH  047%=      5-min Rain = 0
KNH1 260150Z 13009G16KT 29/16 A2999 RMK A01 T02870162  RH  047%=      5-min Rain = 0
KNH1 260151Z 13012G20KT 29/16 A2999 RMK A01 T02870162  RH  047%=      5-min Rain = 0
KNH1 260152Z 13012KT 29/16 A2999 RMK A01 T02860162  RH  047%=      5-min Rain = 0
KNH1 260153Z 13011G18KT 29/16 A2999 RMK A01 T02860162  RH  047%=      5-min Rain = 0
KNH1 260154Z 13014KT 29/16 A2999 RMK A01 T02850162  RH  047%=      5-min Rain = 0
KNH1 260155Z 13015G21KT 29/16 A2999 RMK A01 T02850162  RH  047%=      5-min Rain = 0
KNH1 260156Z 13014KT 29/16 A2999 RMK A01 T02850163  RH  048%=      5-min Rain = 0
KNH1 260157Z 12017KT 28/16 A2999 RMK A01 T02840163  RH  048%=      5-min Rain = 0
KNH1 260158Z 13012G17KT 28/16 A2999 RMK A01 T02840163  RH  048%=      5-min Rain = 0
KNH1 260159Z 13012KT 28/16 A2999 RMK A01 T02830163  RH  048%=      5-min Rain = 0
KNH1 260200Z 13014G19KT 28/16 A2999 RMK A01 T02830162  RH  048%=      5-min Rain = 0
KNH1 260201Z 13011G16KT 28/16 A2999 RMK A01 T02820162  RH  048%=      5-min Rain = 0
KNH1 260202Z 13012G19KT 28/16 A2999 RMK A01 T02820163  RH  048%=      5-min Rain = 0
KNH1 260203Z 13013G20KT 28/16 A2999 RMK A01 T02820163  RH  048%=      5-min Rain = 0
KNH1 260204Z 13014KT 28/16 A30 RMK A01 T02810163  RH  048%=      5-min Rain = 0
KNH1 260205Z 13013KT 28/16 A30 RMK A01 T02810163  RH  049%=      5-min Rain = 0
KNH1 260206Z 13012G17KT 28/16 A30 RMK A01 T02810163  RH  049%=      5-min Rain = 0
KNH1 260207Z 12014KT 28/16 A30 RMK A01 T02800163  RH  049%=      5-min Rain = 0
KNH1 260208Z 12015G22KT 28/16 A30 RMK A01 T02800163  RH  049%=      5-min Rain = 0
KNH1 260209Z 13011G16KT 28/16 A30 RMK A01 T02800163  RH  049%=      5-min Rain = 0
KNH1 260210Z 13013KT 28/16 A30 RMK A01 T02800164  RH  049%=      5-min Rain = 0
KNH1 260211Z 13011G16KT 28/16 A30 RMK A01 T02790163  RH  049%=      5-min Rain = 0
KNH1 260212Z 12011G16KT 28/16 A30 RMK A01 T02790163  RH  049%=      5-min Rain = 0
KNH1 260213Z 13009G14KT 28/16 A30 RMK A01 T02780164  RH  050%=      5-min Rain = 0
KNH1 260214Z 13012KT 28/16 A30 RMK A01 T02780164  RH  050%=      5-min Rain = 0
KNH1 260215Z 13012G17KT 28/16 A30 RMK A01 T02770164  RH  050%=      5-min Rain = 0
KNH1 260216Z 13012G18KT 28/16 A30 RMK A01 T02780164  RH  050%=      5-min Rain = 0
KNH1 260217Z 12010G16KT 28/16 A30 RMK A01 T02770164  RH  050%=      5-min Rain = 0
KNH1 260218Z 12012KT 28/16 A30 RMK A01 T02770164  RH  050%=      5-min Rain = 0
KNH1 260219Z 12012KT 28/17 A3001 RMK A01 T02770165  RH  050%=      5-min Rain = 0
KNH1 260220Z 13011G16KT 28/16 A3001 RMK A01 T02760164  RH  051%=      5-min Rain = 0
KNH1 260221Z 13008KT 28/17 A3001 RMK A01 T02760165  RH  051%=      5-min Rain = 0
KNH1 260222Z 12012G17KT 28/17 A3001 RMK A01 T02750165  RH  051%=      5-min Rain = 0
KNH1 260223Z 12010G15KT 28/17 A3001 RMK A01 T02750165  RH  051%=      5-min Rain = 0
KNH1 260224Z 13013G18KT 28/17 A3001 RMK A01 T02750166  RH  051%=      5-min Rain = 0
KNH1 260225Z 12011KT 28/17 A3001 RMK A01 T02750166  RH  051%=      5-min Rain = 0
KNH1 260226Z 13011KT 28/17 A3001 RMK A01 T02750166  RH  052%=      5-min Rain = 0
KNH1 260227Z 13014KT 28/17 A3001 RMK A01 T02750166  RH  052%=      5-min Rain = 0
KNH1 260228Z 12009G16KT 28/17 A3001 RMK A01 T02750167  RH  052%=      5-min Rain = 0
KNH1 260229Z 13011G18KT 27/17 A3001 RMK A01 T02740166  RH  052%=      5-min Rain = 0
KNH1 260230Z 13012G17KT 27/17 A3002 RMK A01 T02740167  RH  052%=      5-min Rain = 0
KNH1 260231Z 13013G18KT 27/17 A3002 RMK A01 T02740167  RH  052%=      5-min Rain = 0
KNH1 260232Z 13010KT 27/17 A3002 RMK A01 T02730167  RH  052%=      5-min Rain = 0
KNH1 260233Z 13010G15KT 27/17 A3002 RMK A01 T02730167  RH  052%=      5-min Rain = 0
KNH1 260234Z 13010KT 27/17 A3002 RMK A01 T02730167  RH  052%=      5-min Rain = 0
KNH1 260235Z 13009KT 27/17 A3002 RMK A01 T02730167  RH  052%=      5-min Rain = 0
KNH1 260236Z 13013G21KT 27/17 A3002 RMK A01 T02720167  RH  053%=      5-min Rain = 0
KNH1 260237Z 13016G22KT 27/17 A3002 RMK A01 T02720168  RH  053%=      5-min Rain = 0
KNH1 260238Z 13013KT 27/17 A3002 RMK A01 T02720167  RH  053%=      5-min Rain = 0
KNH1 260239Z 13012KT 27/17 A3002 RMK A01 T02730168  RH  053%=      5-min Rain = 0
KNH1 260240Z 13011KT 27/17 A3002 RMK A01 T02720167  RH  053%=      5-min Rain = 0
KNH1 260241Z 13012KT 27/17 A3002 RMK A01 T02720168  RH  053%=      5-min Rain = 0
KNH1 260242Z 13012KT 27/17 A3002 RMK A01 T02720168  RH  053%=      5-min Rain = 0
KNH1 260243Z 13011KT 27/17 A3002 RMK A01 T02710168  RH  053%=      5-min Rain = 0
KNH1 260244Z 13012KT 27/17 A3002 RMK A01 T02710168  RH  053%=      5-min Rain = 0
KNH1 260245Z 15010G16KT 27/17 A3002 RMK A01 T02710168  RH  053%=      5-min Rain = 0
KNH1 260246Z 13011KT 27/17 A3003 RMK A01 T02700168  RH  054%=      5-min Rain = 0
KNH1 260247Z 13009KT 27/17 A3003 RMK A01 T02700167  RH  053%=      5-min Rain = 0
KNH1 260248Z 13009G14KT 27/17 A3003 RMK A01 T02700168  RH  054%=      5-min Rain = 0
KNH1 260249Z 14012KT 27/17 A3003 RMK A01 T02700169  RH  054%=      5-min Rain = 0
KNH1 260250Z 14010G16KT 27/17 A3003 RMK A01 T02690169  RH  054%=      5-min Rain = 0
KNH1 260251Z 14011G17KT 27/17 A3003 RMK A01 T02700169  RH  054%=      5-min Rain = 0
KNH1 260252Z 13012G18KT 27/17 A3003 RMK A01 T02700169  RH  054%=      5-min Rain = 0
KNH1 260253Z 14013KT 27/17 A3003 RMK A01 T02690169  RH  054%=      5-min Rain = 0
KNH1 260254Z 14011KT 27/17 A3003 RMK A01 T02690170  RH  054%=      5-min Rain = 0
KNH1 260255Z 14012KT 27/17 A3003 RMK A01 T02690170  RH  055%=      5-min Rain = 0
KNH1 260256Z 14011KT 27/17 A3003 RMK A01 T02690170  RH  055%=      5-min Rain = 0
KNH1 260257Z 14010G15KT 27/17 A3003 RMK A01 T02690170  RH  055%=      5-min Rain = 0
KNH1 260258Z 14011KT 27/17 A3004 RMK A01 T02680170  RH  055%=      5-min Rain = 0
KNH1 260259Z 14012G18KT 27/17 A3004 RMK A01 T02680170  RH  055%=      5-min Rain = 0
KNH1 260300Z 14011G16KT 27/17 A3004 RMK A01 T02680170  RH  055%=      5-min Rain = 0
KNH1 260301Z 14013KT 27/17 A3004 RMK A01 T02680171  RH  055%=      5-min Rain = 0
KNH1 260302Z 14011G18KT 27/17 A3004 RMK A01 T02680171  RH  055%=      5-min Rain = 0
KNH1 260303Z 14011G16KT 27/17 A3004 RMK A01 T02680171  RH  055%=      5-min Rain = 0
KNH1 260304Z 14011G19KT 27/17 A3004 RMK A01 T02670171  RH  055%=      5-min Rain = 0
KNH1 260305Z 14012G17KT 27/17 A3004 RMK A01 T02670171  RH  056%=      5-min Rain = 0
KNH1 260306Z 14011KT 27/17 A3004 RMK A01 T02670172  RH  056%=      5-min Rain = 0
KNH1 260307Z 15013KT 27/17 A3004 RMK A01 T02670171  RH  056%=      5-min Rain = 0
KNH1 260308Z 15013KT 27/17 A3004 RMK A01 T02670171  RH  056%=      5-min Rain = 0
KNH1 260309Z 14014KT 27/17 A3004 RMK A01 T02670172  RH  056%=      5-min Rain = 0
KNH1 260310Z 14013KT 27/17 A3004 RMK A01 T02670172  RH  056%=      5-min Rain = 0
KNH1 260311Z 14011KT 27/17 A3004 RMK A01 T02670172  RH  056%=      5-min Rain = 0
KNH1 260312Z 15010G15KT 27/17 A3004 RMK A01 T02670173  RH  056%=      5-min Rain = 0
KNH1 260313Z 15012G17KT 27/17 A3004 RMK A01 T02670173  RH  056%=      5-min Rain = 0
KNH1 260314Z 15014KT 27/17 A3004 RMK A01 T02660173  RH  057%=      5-min Rain = 0
KNH1 260315Z 15011G18KT 27/17 A3005 RMK A01 T02670174  RH  057%=      5-min Rain = 0
KNH1 260316Z 15010G16KT 27/17 A3005 RMK A01 T02660174  RH  057%=      5-min Rain = 0
KNH1 260317Z 15011G17KT 27/17 A3005 RMK A01 T02660174  RH  057%=      5-min Rain = 0
KNH1 260318Z 15008G13KT 27/17 A3005 RMK A01 T02650174  RH  057%=      5-min Rain = 0
KNH1 260319Z 15012G19KT 27/17 A3005 RMK A01 T02650174  RH  057%=      5-min Rain = 0
KNH1 260320Z 15011G17KT 27/18 A3005 RMK A01 T02660175  RH  057%=      5-min Rain = 0
KNH1 260321Z 15009G15KT 27/17 A3005 RMK A01 T02650174  RH  057%=      5-min Rain = 0
KNH1 260322Z 15011G16KT 27/18 A3005 RMK A01 T02650175  RH  058%=      5-min Rain = 0
KNH1 260323Z 14010KT 27/17 A3005 RMK A01 T02650174  RH  058%=      5-min Rain = 0
KNH1 260324Z 15011G17KT 27/18 A3005 RMK A01 T02650175  RH  058%=      5-min Rain = 0
KNH1 260325Z 14012KT 26/18 A3005 RMK A01 T02640175  RH  058%=      5-min Rain = 0
KNH1 260326Z 14012KT 26/18 A3006 RMK A01 T02640175  RH  058%=      5-min Rain = 0
KNH1 260327Z 14014KT 26/18 A3006 RMK A01 T02640175  RH  058%=      5-min Rain = 0
KNH1 260328Z 14011G16KT 26/18 A3006 RMK A01 T02640175  RH  058%=      5-min Rain = 0
KNH1 260329Z 13010KT 26/18 A3006 RMK A01 T02630175  RH  058%=      5-min Rain = 0
KNH1 260330Z 13009KT 26/18 A3006 RMK A01 T02630176  RH  059%=      5-min Rain = 0
KNH1 260331Z 13010G16KT 26/18 A3006 RMK A01 T02630176  RH  059%=      5-min Rain = 0
KNH1 260332Z 13010G17KT 26/18 A3006 RMK A01 T02620176  RH  059%=      5-min Rain = 0
KNH1 260333Z 13012KT 26/18 A3006 RMK A01 T02620176  RH  059%=      5-min Rain = 0
KNH1 260334Z 13011KT 26/18 A3006 RMK A01 T02620176  RH  059%=      5-min Rain = 0
KNH1 260335Z 13010G15KT 26/18 A3007 RMK A01 T02610176  RH  059%=      5-min Rain = 0
KNH1 260336Z 13010G16KT 26/18 A3007 RMK A01 T02610176  RH  060%=      5-min Rain = 0
KNH1 260337Z 13008KT 26/18 A3007 RMK A01 T02610176  RH  060%=      5-min Rain = 0
KNH1 260338Z 13011G17KT 26/18 A3007 RMK A01 T02600176  RH  060%=      5-min Rain = 0
KNH1 260339Z 13010G15KT 26/18 A3007 RMK A01 T02600177  RH  060%=      5-min Rain = 0
KNH1 260340Z 14008G16KT 26/18 A3007 RMK A01 T02600177  RH  060%=      5-min Rain = 0
KNH1 260341Z 13011G17KT 26/18 A3007 RMK A01 T02600177  RH  060%=      5-min Rain = 0
KNH1 260342Z 13008KT 26/18 A3007 RMK A01 T02600177  RH  060%=      5-min Rain = 0
KNH1 260343Z 13010G17KT 26/18 A3007 RMK A01 T02600177  RH  060%=      5-min Rain = 0
KNH1 260344Z 13009KT 26/18 A3007 RMK A01 T02590177  RH  061%=      5-min Rain = 0
KNH1 260345Z 13009KT 26/18 A3008 RMK A01 T02590178  RH  061%=      5-min Rain = 0
KNH1 260346Z 13009KT 26/18 A3008 RMK A01 T02590178  RH  061%=      5-min Rain = 0
KNH1 260347Z 12010KT 26/18 A3008 RMK A01 T02590178  RH  061%=      5-min Rain = 0
KNH1 260348Z 12008KT 26/18 A3008 RMK A01 T02590178  RH  061%=      5-min Rain = 0
KNH1 260349Z 12007KT 26/18 A3008 RMK A01 T02590178  RH  061%=      5-min Rain = 0
KNH1 260350Z 13009KT 26/18 A3009 RMK A01 T02590179  RH  061%=      5-min Rain = 0
KNH1 260351Z 13009KT 26/18 A3009 RMK A01 T02590179  RH  061%=      5-min Rain = 0
KNH1 260352Z 13008G13KT 26/18 A3009 RMK A01 T02580179  RH  061%=      5-min Rain = 0
KNH1 260353Z 12010KT 26/18 A3009 RMK A01 T02580179  RH  061%=      5-min Rain = 0
KNH1 260354Z 12009KT 26/18 A3009 RMK A01 T02580179  RH  062%=      5-min Rain = 0
KNH1 260355Z 11011KT 26/18 A3009 RMK A01 T02580179  RH  062%=      5-min Rain = 0
KNH1 260356Z 11009KT 26/18 A3009 RMK A01 T02580179  RH  062%=      5-min Rain = 0
KNH1 260357Z 11012KT 26/18 A3009 RMK A01 T02580179  RH  062%=      5-min Rain = 0
KNH1 260358Z 10010G15KT 26/18 A301 RMK A01 T02580179  RH  062%=      5-min Rain = 0
KNH1 260359Z 11011KT 26/18 A301 RMK A01 T02570179  RH  062%=      5-min Rain = 0
KNH1 260400Z 10010KT 26/18 A301 RMK A01 T02580179  RH  062%=      5-min Rain = 0
KNH1 260401Z 10011KT 26/18 A301 RMK A01 T02570178  RH  062%=      5-min Rain = 0
KNH1 260402Z 10011KT 26/18 A301 RMK A01 T02580179  RH  062%=      5-min Rain = 0
KNH1 260403Z 10010KT 26/18 A301 RMK A01 T02570178  RH  062%=      5-min Rain = 0
KNH1 260404Z 10011KT 26/18 A301 RMK A01 T02570178  RH  062%=      5-min Rain = 0
KNH1 260405Z 10009KT 26/18 A301 RMK A01 T02570178  RH  062%=      5-min Rain = 0
KNH1 260406Z 10009KT 26/18 A301 RMK A01 T02570178  RH  062%=      5-min Rain = 0
KNH1 260407Z 10011KT 26/18 A301 RMK A01 T02570178  RH  062%=      5-min Rain = 0
KNH1 260408Z 10010KT 26/18 A301 RMK A01 T02570178  RH  062%=      5-min Rain = 0
KNH1 260409Z 10008KT 26/18 A301 RMK A01 T02570178  RH  062%=      5-min Rain = 0
KNH1 260410Z 10009KT 26/18 A3011 RMK A01 T02560178  RH  062%=      5-min Rain = 0
KNH1 260411Z 10010KT 26/18 A3011 RMK A01 T02560177  RH  062%=      5-min Rain = 0
KNH1 260412Z 10011KT 26/18 A3011 RMK A01 T02550177  RH  062%=      5-min Rain = 0
KNH1 260413Z 10010G15KT 26/18 A3011 RMK A01 T02550177  RH  062%=      5-min Rain = 0
KNH1 260414Z 09011KT 26/18 A3011 RMK A01 T02550177  RH  062%=      5-min Rain = 0
KNH1 260415Z 10009KT 26/18 A3011 RMK A01 T02550177  RH  062%=      5-min Rain = 0
KNH1 260416Z 09010KT 26/18 A3011 RMK A01 T02550177  RH  062%=      5-min Rain = 0
KNH1 260417Z 09010KT 26/18 A3011 RMK A01 T02550177  RH  062%=      5-min Rain = 0
KNH1 260418Z 09010KT 26/18 A3012 RMK A01 T02550178  RH  062%=      5-min Rain = 0
KNH1 260419Z 08011KT 26/18 A3012 RMK A01 T02550177  RH  062%=      5-min Rain = 0
KNH1 260420Z 08011KT 26/18 A3012 RMK A01 T02550177  RH  062%=      5-min Rain = 0
KNH1 260421Z 08012KT 25/18 A3012 RMK A01 T02540177  RH  062%=      5-min Rain = 0
KNH1 260422Z 08013KT 26/18 A3012 RMK A01 T02550177  RH  062%=      5-min Rain = 0
KNH1 260423Z 08013KT 25/18 A3012 RMK A01 T02540177  RH  062%=      5-min Rain = 0
KNH1 260424Z 08013KT 25/18 A3012 RMK A01 T02540177  RH  062%=      5-min Rain = 0
KNH1 260425Z 08012KT 25/18 A3012 RMK A01 T02540177  RH  062%=      5-min Rain = 0
KNH1 260426Z 08014KT 26/18 A3012 RMK A01 T02550177  RH  062%=      5-min Rain = 0
KNH1 260427Z 07011KT 26/18 A3012 RMK A01 T02550177  RH  062%=      5-min Rain = 0
KNH1 260428Z 08014KT 26/18 A3012 RMK A01 T02550176  RH  062%=      5-min Rain = 0
KNH1 260429Z 08014KT 26/18 A3013 RMK A01 T02550175  RH  061%=      5-min Rain = 0
KNH1 260430Z 08015KT 25/17 A3013 RMK A01 T02540174  RH  061%=      5-min Rain = 0
KNH1 260431Z 07012KT 25/17 A3013 RMK A01 T02540174  RH  061%=      5-min Rain = 0
KNH1 260432Z 07012G17KT 25/17 A3013 RMK A01 T02540173  RH  061%=      5-min Rain = 0
KNH1 260433Z 07014KT 25/17 A3013 RMK A01 T02540173  RH  061%=      5-min Rain = 0
KNH1 260434Z 07011KT 25/17 A3013 RMK A01 T02540172  RH  060%=      5-min Rain = 0
KNH1 260435Z 07012KT 25/17 A3013 RMK A01 T02540172  RH  060%=      5-min Rain = 0
KNH1 260436Z 08015G20KT 25/17 A3013 RMK A01 T02540171  RH  060%=      5-min Rain = 0
KNH1 260437Z 08016KT 25/17 A3013 RMK A01 T02540171  RH  060%=      5-min Rain = 0
KNH1 260438Z 08017KT 26/17 A3013 RMK A01 T02550171  RH  060%=      5-min Rain = 0
KNH1 260439Z 08013KT 26/17 A3013 RMK A01 T02560171  RH  060%=      5-min Rain = 0
KNH1 260440Z 09012KT 26/17 A3013 RMK A01 T02560171  RH  060%=      5-min Rain = 0
KNH1 260441Z 08014KT 26/17 A3013 RMK A01 T02560171  RH  060%=      5-min Rain = 0
KNH1 260442Z 08011KT 26/17 A3013 RMK A01 T02560172  RH  060%=      5-min Rain = 0
KNH1 260443Z 08011G16KT 26/17 A3013 RMK A01 T02570172  RH  060%=      5-min Rain = 0
KNH1 260444Z 08014KT 26/17 A3013 RMK A01 T02560172  RH  060%=      5-min Rain = 0
KNH1 260445Z 08014KT 26/17 A3014 RMK A01 T02560172  RH  059%=      5-min Rain = 0
KNH1 260446Z 08013G18KT 26/17 A3014 RMK A01 T02570171  RH  059%=      5-min Rain = 0
KNH1 260447Z 08012KT 26/17 A3014 RMK A01 T02570171  RH  059%=      5-min Rain = 0
KNH1 260448Z 08012KT 26/17 A3014 RMK A01 T02560171  RH  059%=      5-min Rain = 0
KNH1 260449Z 07012KT 26/17 A3014 RMK A01 T02560170  RH  059%=      5-min Rain = 0
KNH1 260450Z 07011KT 26/17 A3014 RMK A01 T02550170  RH  059%=      5-min Rain = 0
KNH1 260451Z 07013G18KT 26/17 A3014 RMK A01 T02550170  RH  059%=      5-min Rain = 0
KNH1 260452Z 08012KT 26/17 A3014 RMK A01 T02550169  RH  059%=      5-min Rain = 0
KNH1 260453Z 07012KT 26/17 A3014 RMK A01 T02550169  RH  059%=      5-min Rain = 0
KNH1 260454Z 08013KT 26/17 A3014 RMK A01 T02550169  RH  059%=      5-min Rain = 0
KNH1 260455Z 07014G19KT 26/17 A3014 RMK A01 T02550169  RH  059%=      5-min Rain = 0
KNH1 260456Z 08014KT 26/17 A3014 RMK A01 T02550169  RH  059%=      5-min Rain = 0
KNH1 260457Z 08015G20KT 26/17 A3014 RMK A01 T02550169  RH  059%=      5-min Rain = 0
KNH1 260458Z 08012G17KT 26/17 A3014 RMK A01 T02550170  RH  059%=      5-min Rain = 0
KNH1 260459Z 08013KT 26/17 A3014 RMK A01 T02550170  RH  059%=      5-min Rain = 0

Page generated in 0.1007 seconds.